Observation data for Segovia 7SSW on 02/14/2020      Previous  Date  Next       Current Mesonet Observations  Soil Data  Daily Summary Page  Observations in Plain Language
KSE2 140600Z 05003KT 01/00 A3032 RMK A01 T00140001  RH  091%=      5-min Rain = 0
KSE2 140601Z 05004KT 01/00 A3032 RMK A01 T00140001  RH  091%=      5-min Rain = 0
KSE2 140602Z 05004KT 01/00 A3032 RMK A01 T00140001  RH  091%=      5-min Rain = 0
KSE2 140603Z 05004KT 01/00 A3032 RMK A01 T00140001  RH  091%=      5-min Rain = 0
KSE2 140604Z 06005KT 01/00 A3032 RMK A01 T00140001  RH  091%=      5-min Rain = 0
KSE2 140605Z 06005KT 01/00 A3032 RMK A01 T00140001  RH  091%=      5-min Rain = 0
KSE2 140606Z 06004KT 01/00 A3032 RMK A01 T00140001  RH  091%=      5-min Rain = 0
KSE2 140607Z 06004KT 01/00 A3032 RMK A01 T00130000  RH  091%=      5-min Rain = 0
KSE2 140608Z 06004KT 01/00 A3033 RMK A01 T00130000  RH  091%=      5-min Rain = 0
KSE2 140609Z 06004KT 01/00 A3033 RMK A01 T00130000  RH  091%=      5-min Rain = 0
KSE2 140610Z 06004KT 01/00 A3033 RMK A01 T00130000  RH  091%=      5-min Rain = 0
KSE2 140611Z 06005KT 01/00 A3033 RMK A01 T00130001  RH  092%=      5-min Rain = 0
KSE2 140612Z 06005KT 01/00 A3033 RMK A01 T00130001  RH  092%=      5-min Rain = 0
KSE2 140613Z 06005KT 01/00 A3033 RMK A01 T00130001  RH  092%=      5-min Rain = 0
KSE2 140614Z 05005KT 01/00 A3033 RMK A01 T00130001  RH  092%=      5-min Rain = 0
KSE2 140615Z 05005KT 01/00 A3033 RMK A01 T00130002  RH  092%=      5-min Rain = 0
KSE2 140616Z 05005KT 01/00 A3033 RMK A01 T00130002  RH  092%=      5-min Rain = 0
KSE2 140617Z 05006KT 01/00 A3033 RMK A01 T00140003  RH  092%=      5-min Rain = 0
KSE2 140618Z 06006KT 01/00 A3033 RMK A01 T00140003  RH  092%=      5-min Rain = 0
KSE2 140619Z 06005KT 02/00 A3033 RMK A01 T00150003  RH  092%=      5-min Rain = 0
KSE2 140620Z 06005KT 02/00 A3033 RMK A01 T00150003  RH  092%=      5-min Rain = 0
KSE2 140621Z 06006KT 02/00 A3033 RMK A01 T00150004  RH  092%=      5-min Rain = 0
KSE2 140622Z 05005KT 02/00 A3033 RMK A01 T00160004  RH  092%=      5-min Rain = 0
KSE2 140623Z 05006KT 02/00 A3033 RMK A01 T00150004  RH  092%=      5-min Rain = 0
KSE2 140624Z 06005KT 02/00 A3033 RMK A01 T00160004  RH  092%=      5-min Rain = 0
KSE2 140625Z 06006KT 02/00 A3033 RMK A01 T00160004  RH  092%=      5-min Rain = 0
KSE2 140626Z 04007KT 02/00 A3033 RMK A01 T00160004  RH  092%=      5-min Rain = 0
KSE2 140627Z 05008KT 02/00 A3033 RMK A01 T00160004  RH  092%=      5-min Rain = 0
KSE2 140628Z 05008KT 02/01 A3033 RMK A01 T00160005  RH  092%=      5-min Rain = 0
KSE2 140629Z 05007KT 02/01 A3033 RMK A01 T00170005  RH  092%=      5-min Rain = 0
KSE2 140630Z 05006KT 02/01 A3033 RMK A01 T00170005  RH  092%=      5-min Rain = 0
KSE2 140631Z 05007KT 02/01 A3033 RMK A01 T00170005  RH  092%=      5-min Rain = 0
KSE2 140632Z 06007KT 02/01 A3033 RMK A01 T00170005  RH  092%=      5-min Rain = 0
KSE2 140633Z 06006KT 02/00 A3033 RMK A01 T00170004  RH  092%=      5-min Rain = 0
KSE2 140634Z 05008KT 02/01 A3033 RMK A01 T00170005  RH  092%=      5-min Rain = 0
KSE2 140635Z 06008KT 02/00 A3032 RMK A01 T00160004  RH  092%=      5-min Rain = 0
KSE2 140636Z 06008KT 02/00 A3032 RMK A01 T00160004  RH  092%=      5-min Rain = 0
KSE2 140637Z 07009KT 02/00 A3032 RMK A01 T00160004  RH  092%=      5-min Rain = 0
KSE2 140638Z 06007KT 02/00 A3032 RMK A01 T00160004  RH  092%=      5-min Rain = 0
KSE2 140639Z 06004KT 02/00 A3032 RMK A01 T00160004  RH  092%=      5-min Rain = 0
KSE2 140640Z 07006KT 02/00 A3032 RMK A01 T00160004  RH  092%=      5-min Rain = 0
KSE2 140641Z 07006KT 02/00 A3032 RMK A01 T00160004  RH  092%=      5-min Rain = 0
KSE2 140642Z 07008KT 02/00 A3032 RMK A01 T00160004  RH  092%=      5-min Rain = 0
KSE2 140643Z 07009KT 02/00 A3032 RMK A01 T00150004  RH  092%=      5-min Rain = 0
KSE2 140644Z 07007KT 02/00 A3032 RMK A01 T00150004  RH  092%=      5-min Rain = 0
KSE2 140645Z 06006KT 02/00 A3032 RMK A01 T00150003  RH  092%=      5-min Rain = 0
KSE2 140646Z 06006KT 02/00 A3032 RMK A01 T00150003  RH  092%=      5-min Rain = 0
KSE2 140647Z 06007KT 02/00 A3032 RMK A01 T00150003  RH  092%=      5-min Rain = 0
KSE2 140648Z 06006KT 02/00 A3032 RMK A01 T00150003  RH  092%=      5-min Rain = 0
KSE2 140649Z 06006KT 01/00 A3032 RMK A01 T00140003  RH  092%=      5-min Rain = 0
KSE2 140650Z 07007KT 02/00 A3032 RMK A01 T00150003  RH  092%=      5-min Rain = 0
KSE2 140651Z 06006KT 01/00 A3032 RMK A01 T00140003  RH  092%=      5-min Rain = 0
KSE2 140652Z 06006KT 02/00 A3032 RMK A01 T00150003  RH  092%=      5-min Rain = 0
KSE2 140653Z 05006KT 01/00 A3032 RMK A01 T00140003  RH  092%=      5-min Rain = 0
KSE2 140654Z 06008KT 01/00 A3032 RMK A01 T00140003  RH  092%=      5-min Rain = 0
KSE2 140655Z 06009KT 01/00 A3032 RMK A01 T00140003  RH  092%=      5-min Rain = 0
KSE2 140656Z 05008KT 02/00 A3032 RMK A01 T00150003  RH  092%=      5-min Rain = 0
KSE2 140657Z 06006KT 01/00 A3032 RMK A01 T00140003  RH  092%=      5-min Rain = 0
KSE2 140658Z 06008KT 02/00 A3032 RMK A01 T00150003  RH  092%=      5-min Rain = 0
KSE2 140659Z 05008KT 01/00 A3032 RMK A01 T00140003  RH  092%=      5-min Rain = 0
KSE2 140700Z 06006KT 01/00 A3032 RMK A01 T00140002  RH  092%=      5-min Rain = 0
KSE2 140701Z 05008KT 01/00 A3032 RMK A01 T00140002  RH  092%=      5-min Rain = 0
KSE2 140702Z 06008KT 01/00 A3032 RMK A01 T00140002  RH  092%=      5-min Rain = 0
KSE2 140703Z 05008KT 01/00 A3032 RMK A01 T00140001  RH  092%=      5-min Rain = 0
KSE2 140704Z 06007KT 01/00 A3032 RMK A01 T00130001  RH  092%=      5-min Rain = 0
KSE2 140705Z 06007KT 01/00 A3032 RMK A01 T00140001  RH  092%=      5-min Rain = 0
KSE2 140706Z 06007KT 01/00 A3032 RMK A01 T00140002  RH  092%=      5-min Rain = 0
KSE2 140707Z 06007KT 01/00 A3033 RMK A01 T00130001  RH  092%=      5-min Rain = 0
KSE2 140708Z 06009KT 01/00 A3033 RMK A01 T00140002  RH  092%=      5-min Rain = 0
KSE2 140709Z 06011KT 01/00 A3032 RMK A01 T00130001  RH  092%=      5-min Rain = 0
KSE2 140710Z 07008KT 01/00 A3032 RMK A01 T00130001  RH  092%=      5-min Rain = 0
KSE2 140711Z 08008KT 01/00 A3032 RMK A01 T00130001  RH  092%=      5-min Rain = 0
KSE2 140712Z 08008KT 01/00 A3032 RMK A01 T00130001  RH  092%=      5-min Rain = 0
KSE2 140713Z 07009KT 01/00 A3032 RMK A01 T00130001  RH  092%=      5-min Rain = 0
KSE2 140714Z 08009KT 01/00 A3033 RMK A01 T00130001  RH  092%=      5-min Rain = 0
KSE2 140715Z 08009KT 01/00 A3033 RMK A01 T00130001  RH  092%=      5-min Rain = 0
KSE2 140716Z 08006KT 01/00 A3033 RMK A01 T00130001  RH  092%=      5-min Rain = 0
KSE2 140717Z 08008KT 01/00 A3033 RMK A01 T00130001  RH  092%=      5-min Rain = 0
KSE2 140718Z 08008KT 01/00 A3033 RMK A01 T00130001  RH  092%=      5-min Rain = 0
KSE2 140719Z 08008KT 01/00 A3033 RMK A01 T00120001  RH  092%=      5-min Rain = 0
KSE2 140720Z 07009KT 01/00 A3033 RMK A01 T00120001  RH  092%=      5-min Rain = 0
KSE2 140721Z 07009KT 01/00 A3033 RMK A01 T00120001  RH  092%=      5-min Rain = 0
KSE2 140722Z 08008KT 01/00 A3033 RMK A01 T00120000  RH  092%=      5-min Rain = 0
KSE2 140723Z 07008G13KT 01/00 A3033 RMK A01 T00120001  RH  092%=      5-min Rain = 0
KSE2 140724Z 06010KT 01/00 A3033 RMK A01 T00110000  RH  092%=      5-min Rain = 0
KSE2 140725Z 07008KT 01/00 A3033 RMK A01 T00110000  RH  092%=      5-min Rain = 0
KSE2 140726Z 07008KT 01/00 A3033 RMK A01 T00110000  RH  093%=      5-min Rain = 0
KSE2 140727Z 08006KT 01/00 A3033 RMK A01 T00110001  RH  093%=      5-min Rain = 0
KSE2 140728Z 07005KT 01/00 A3033 RMK A01 T00110001  RH  093%=      5-min Rain = 0
KSE2 140729Z 07009KT 01/00 A3033 RMK A01 T00110001  RH  093%=      5-min Rain = 0
KSE2 140730Z 07008KT 01/00 A3033 RMK A01 T00110001  RH  093%=      5-min Rain = 0
KSE2 140731Z 07007KT 01/00 A3033 RMK A01 T00110001  RH  093%=      5-min Rain = 0
KSE2 140732Z 08006KT 01/00 A3033 RMK A01 T00110001  RH  093%=      5-min Rain = 0
KSE2 140733Z 08006KT 01/00 A3033 RMK A01 T00110001  RH  093%=      5-min Rain = 0
KSE2 140734Z 08006KT 01/00 A3033 RMK A01 T00110001  RH  093%=      5-min Rain = 0
KSE2 140735Z 09007KT 01/00 A3033 RMK A01 T00110001  RH  093%=      5-min Rain = 0
KSE2 140736Z 08006KT 01/00 A3033 RMK A01 T00110001  RH  093%=      5-min Rain = 0
KSE2 140737Z 07005KT 01/00 A3033 RMK A01 T00110001  RH  093%=      5-min Rain = 0
KSE2 140738Z 06007KT 01/00 A3033 RMK A01 T00110001  RH  093%=      5-min Rain = 0
KSE2 140739Z 08007KT 01/00 A3033 RMK A01 T00110001  RH  093%=      5-min Rain = 0
KSE2 140740Z 08010KT 01/00 A3033 RMK A01 T00110001  RH  093%=      5-min Rain = 0
KSE2 140741Z 09007KT 01/00 A3033 RMK A01 T00110001  RH  093%=      5-min Rain = 0
KSE2 140742Z 07007KT 01/00 A3033 RMK A01 T00110001  RH  093%=      5-min Rain = 0
KSE2 140743Z 07007KT 01/00 A3033 RMK A01 T00110001  RH  093%=      5-min Rain = 0
KSE2 140744Z 07007KT 01/00 A3034 RMK A01 T00110001  RH  093%=      5-min Rain = 0
KSE2 140745Z 08008KT 01/00 A3034 RMK A01 T00110001  RH  093%=      5-min Rain = 0
KSE2 140746Z 08006KT 01/00 A3034 RMK A01 T00110001  RH  093%=      5-min Rain = 0
KSE2 140747Z 07006KT 01/00 A3034 RMK A01 T00110001  RH  093%=      5-min Rain = 0
KSE2 140748Z 08006KT 01/00 A3034 RMK A01 T00110001  RH  093%=      5-min Rain = 0
KSE2 140749Z 07008KT 01/00 A3034 RMK A01 T00110001  RH  093%=      5-min Rain = 0
KSE2 140750Z 08007KT 01/00 A3034 RMK A01 T00110002  RH  093%=      5-min Rain = 0
KSE2 140751Z 07008KT 01/00 A3034 RMK A01 T00120002  RH  093%=      5-min Rain = 0
KSE2 140752Z 07005KT 01/00 A3034 RMK A01 T00110001  RH  093%=      5-min Rain = 0
KSE2 140753Z 07005KT 01/00 A3034 RMK A01 T00120002  RH  093%=      5-min Rain = 0
KSE2 140754Z 05008KT 01/00 A3033 RMK A01 T00120002  RH  093%=      5-min Rain = 0
KSE2 140755Z 06009KT 01/00 A3033 RMK A01 T00120002  RH  093%=      5-min Rain = 0
KSE2 140756Z 06008KT 01/00 A3033 RMK A01 T00120002  RH  093%=      5-min Rain = 0
KSE2 140757Z 06008KT 01/00 A3033 RMK A01 T00110002  RH  093%=      5-min Rain = 0
KSE2 140758Z 05006KT 01/00 A3033 RMK A01 T00110002  RH  093%=      5-min Rain = 0
KSE2 140759Z 06006KT 01/00 A3034 RMK A01 T00110002  RH  093%=      5-min Rain = 0
KSE2 140800Z 06005KT 01/00 A3034 RMK A01 T00110002  RH  094%=      5-min Rain = 0
KSE2 140801Z 06006KT 01/00 A3034 RMK A01 T00110002  RH  094%=      5-min Rain = 0
KSE2 140802Z 06006KT 01/00 A3034 RMK A01 T00110002  RH  094%=      5-min Rain = 0
KSE2 140803Z 06007KT 01/00 A3034 RMK A01 T00110002  RH  094%=      5-min Rain = 0
KSE2 140804Z 06007KT 01/00 A3034 RMK A01 T00110002  RH  094%=      5-min Rain = 0
KSE2 140805Z 06007KT 01/00 A3034 RMK A01 T00110002  RH  094%=      5-min Rain = 0
KSE2 140806Z 06008KT 01/00 A3034 RMK A01 T00110001  RH  093%=      5-min Rain = 0
KSE2 140807Z 06008KT 01/00 A3034 RMK A01 T00110002  RH  093%=      5-min Rain = 0
KSE2 140808Z 06008KT 01/00 A3034 RMK A01 T00110002  RH  094%=      5-min Rain = 0
KSE2 140809Z 06008G13KT 01/00 A3034 RMK A01 T00110002  RH  094%=      5-min Rain = 0
KSE2 140810Z 06010KT 01/00 A3034 RMK A01 T00110002  RH  094%=      5-min Rain = 0
KSE2 140811Z 07010KT 01/00 A3034 RMK A01 T00110002  RH  094%=      5-min Rain = 0
KSE2 140812Z 06009KT 01/00 A3034 RMK A01 T00110002  RH  094%=      5-min Rain = 0
KSE2 140813Z 06008KT 01/00 A3033 RMK A01 T00110002  RH  094%=      5-min Rain = 0
KSE2 140814Z 07008KT 01/00 A3034 RMK A01 T00110002  RH  094%=      5-min Rain = 0
KSE2 140815Z 06007KT 01/00 A3034 RMK A01 T00110002  RH  094%=      5-min Rain = 0
KSE2 140816Z 07006KT 01/00 A3034 RMK A01 T00110002  RH  094%=      5-min Rain = 0
KSE2 140817Z 07007KT 01/00 A3034 RMK A01 T00110002  RH  094%=      5-min Rain = 0
KSE2 140818Z 07009KT 01/00 A3034 RMK A01 T00110002  RH  094%=      5-min Rain = 0
KSE2 140819Z 07007KT 01/00 A3034 RMK A01 T00110002  RH  094%=      5-min Rain = 0
KSE2 140820Z 07008KT 01/00 A3034 RMK A01 T00110002  RH  094%=      5-min Rain = 0
KSE2 140821Z 07008KT 01/00 A3034 RMK A01 T00110002  RH  094%=      5-min Rain = 0
KSE2 140822Z 07006KT 01/00 A3034 RMK A01 T00110002  RH  094%=      5-min Rain = 0
KSE2 140823Z 07007KT 01/00 A3034 RMK A01 T00110002  RH  094%=      5-min Rain = 0
KSE2 140824Z 06006KT 01/00 A3034 RMK A01 T00110002  RH  094%=      5-min Rain = 0
KSE2 140825Z 07007KT 01/00 A3034 RMK A01 T00110003  RH  094%=      5-min Rain = 0
KSE2 140826Z 07006KT 01/00 A3034 RMK A01 T00110002  RH  094%=      5-min Rain = 0
KSE2 140827Z 07006KT 01/00 A3034 RMK A01 T00110002  RH  094%=      5-min Rain = 0
KSE2 140828Z 07006KT 01/00 A3034 RMK A01 T00110003  RH  094%=      5-min Rain = 0
KSE2 140829Z 07005KT 01/00 A3034 RMK A01 T00110003  RH  094%=      5-min Rain = 0
KSE2 140830Z 08006KT 01/00 A3034 RMK A01 T00110003  RH  094%=      5-min Rain = 0
KSE2 140831Z 07007KT 01/00 A3034 RMK A01 T00110003  RH  094%=      5-min Rain = 0
KSE2 140832Z 06007KT 01/00 A3034 RMK A01 T00110003  RH  094%=      5-min Rain = 0
KSE2 140833Z 06008KT 01/00 A3034 RMK A01 T00110003  RH  094%=      5-min Rain = 0
KSE2 140834Z 07006KT 01/00 A3034 RMK A01 T00110003  RH  094%=      5-min Rain = 0
KSE2 140835Z 07006KT 01/00 A3034 RMK A01 T00110003  RH  095%=      5-min Rain = 0
KSE2 140836Z 08006KT 01/00 A3034 RMK A01 T00110003  RH  094%=      5-min Rain = 0
KSE2 140837Z 07005KT 01/00 A3034 RMK A01 T00110003  RH  095%=      5-min Rain = 0
KSE2 140838Z 08004KT 01/00 A3034 RMK A01 T00110003  RH  095%=      5-min Rain = 0
KSE2 140839Z 07004KT 01/00 A3033 RMK A01 T00110003  RH  095%=      5-min Rain = 0
KSE2 140840Z 07006KT 01/00 A3033 RMK A01 T00110004  RH  095%=      5-min Rain = 0
KSE2 140841Z 09005KT 01/00 A3033 RMK A01 T00110004  RH  095%=      5-min Rain = 0
KSE2 140842Z 09004KT 01/00 A3033 RMK A01 T00120004  RH  095%=      5-min Rain = 0
KSE2 140843Z 10006KT 01/00 A3033 RMK A01 T00120004  RH  095%=      5-min Rain = 0
KSE2 140844Z 09005KT 01/00 A3033 RMK A01 T00120004  RH  095%=      5-min Rain = 0
KSE2 140845Z 09005KT 01/00 A3033 RMK A01 T00120004  RH  094%=      5-min Rain = 0
KSE2 140846Z 09005KT 01/00 A3033 RMK A01 T00120004  RH  094%=      5-min Rain = 0
KSE2 140847Z 08004KT 01/00 A3033 RMK A01 T00120004  RH  094%=      5-min Rain = 0
KSE2 140848Z 09006KT 01/00 A3033 RMK A01 T00120004  RH  094%=      5-min Rain = 0
KSE2 140849Z 09005KT 01/00 A3033 RMK A01 T00120004  RH  094%=      5-min Rain = 0
KSE2 140850Z 09005KT 01/00 A3033 RMK A01 T00120004  RH  094%=      5-min Rain = 0
KSE2 140851Z 08007KT 01/00 A3033 RMK A01 T00120004  RH  094%=      5-min Rain = 0
KSE2 140852Z 10005KT 01/00 A3033 RMK A01 T00120004  RH  094%=      5-min Rain = 0
KSE2 140853Z 10006KT 01/00 A3033 RMK A01 T00120003  RH  094%=      5-min Rain = 0
KSE2 140854Z 10008KT 01/00 A3033 RMK A01 T00120003  RH  094%=      5-min Rain = 0
KSE2 140855Z 10009KT 01/00 A3033 RMK A01 T00120002  RH  093%=      5-min Rain = 0
KSE2 140856Z 10007KT 01/00 A3033 RMK A01 T00120001  RH  093%=      5-min Rain = 0
KSE2 140857Z 10005KT 01/00 A3033 RMK A01 T00120001  RH  092%=      5-min Rain = 0
KSE2 140858Z 08005KT 01/00 A3033 RMK A01 T00120001  RH  092%=      5-min Rain = 0
KSE2 140859Z 08005KT 01/00 A3033 RMK A01 T00120001  RH  092%=      5-min Rain = 0
KSE2 140900Z 09006KT 01/00 A3033 RMK A01 T00120001  RH  092%=      5-min Rain = 0
KSE2 140901Z 10007KT 01/00 A3033 RMK A01 T00120000  RH  092%=      5-min Rain = 0
KSE2 140902Z 10007KT 01/00 A3033 RMK A01 T00120000  RH  092%=      5-min Rain = 0
KSE2 140903Z 10007KT 01/00 A3033 RMK A01 T00120000  RH  092%=      5-min Rain = 0
KSE2 140904Z 09006KT 01/00 A3033 RMK A01 T00130001  RH  092%=      5-min Rain = 0
KSE2 140905Z 09005KT 01/00 A3033 RMK A01 T00130001  RH  092%=      5-min Rain = 0
KSE2 140906Z 09005KT 01/00 A3033 RMK A01 T00130001  RH  092%=      5-min Rain = 0
KSE2 140907Z 08005KT 01/00 A3033 RMK A01 T00130001  RH  092%=      5-min Rain = 0
KSE2 140908Z 08004KT 01/00 A3033 RMK A01 T00130002  RH  092%=      5-min Rain = 0
KSE2 140909Z 07005KT 01/00 A3033 RMK A01 T00130002  RH  092%=      5-min Rain = 0
KSE2 140910Z 06006KT 01/00 A3033 RMK A01 T00140003  RH  092%=      5-min Rain = 0
KSE2 140911Z 07007KT 01/00 A3033 RMK A01 T00130003  RH  092%=      5-min Rain = 0
KSE2 140912Z 07006KT 01/00 A3033 RMK A01 T00130002  RH  092%=      5-min Rain = 0
KSE2 140913Z 07007KT 01/00 A3033 RMK A01 T00130002  RH  093%=      5-min Rain = 0
KSE2 140914Z 07007KT 01/00 A3033 RMK A01 T00130002  RH  093%=      5-min Rain = 0
KSE2 140915Z 08007KT 01/00 A3033 RMK A01 T00120002  RH  093%=      5-min Rain = 0
KSE2 140916Z 07008KT 01/00 A3032 RMK A01 T00120002  RH  093%=      5-min Rain = 0
KSE2 140917Z 07007KT 01/00 A3032 RMK A01 T00120002  RH  093%=      5-min Rain = 0
KSE2 140918Z 08006KT 01/00 A3032 RMK A01 T00120002  RH  093%=      5-min Rain = 0
KSE2 140919Z 08005KT 01/00 A3032 RMK A01 T00120002  RH  093%=      5-min Rain = 0
KSE2 140920Z 08005KT 01/00 A3032 RMK A01 T00120002  RH  093%=      5-min Rain = 0
KSE2 140921Z 08003KT 01/00 A3033 RMK A01 T00120002  RH  093%=      5-min Rain = 0
KSE2 140922Z 08005KT 01/00 A3033 RMK A01 T00120002  RH  093%=      5-min Rain = 0
KSE2 140923Z 07005KT 01/00 A3033 RMK A01 T00120002  RH  093%=      5-min Rain = 0
KSE2 140924Z 10004KT 01/00 A3033 RMK A01 T00120002  RH  093%=      5-min Rain = 0
KSE2 140925Z 09004KT 01/00 A3033 RMK A01 T00120002  RH  093%=      5-min Rain = 0
KSE2 140926Z 09004KT 01/00 A3033 RMK A01 T00130003  RH  093%=      5-min Rain = 0
KSE2 140927Z 09006KT 01/00 A3033 RMK A01 T00130003  RH  093%=      5-min Rain = 0
KSE2 140928Z 10005KT 01/00 A3033 RMK A01 T00120002  RH  093%=      5-min Rain = 0
KSE2 140929Z 11005KT 01/00 A3033 RMK A01 T00120001  RH  092%=      5-min Rain = 0
KSE2 140930Z 11005KT 01/00 A3033 RMK A01 T001100-0  RH  092%=      5-min Rain = 0
KSE2 140931Z 10007KT 01/M00 A3033 RMK A01 T00111001  RH  092%=      5-min Rain = 0
KSE2 140932Z 11005KT 01/M00 A3033 RMK A01 T00101002  RH  091%=      5-min Rain = 0
KSE2 140933Z 10007KT 01/M00 A3033 RMK A01 T00101002  RH  091%=      5-min Rain = 0
KSE2 140934Z 10008KT 01/M00 A3033 RMK A01 T00101004  RH  091%=      5-min Rain = 0
KSE2 140935Z 11007KT 01/M01 A3033 RMK A01 T00091006  RH  090%=      5-min Rain = 0
KSE2 140936Z 10006KT 01/M01 A3033 RMK A01 T00081006  RH  090%=      5-min Rain = 0
KSE2 140937Z 10005KT 01/M01 A3033 RMK A01 T00081006  RH  090%=      5-min Rain = 0
KSE2 140938Z 10006KT 01/M01 A3033 RMK A01 T00081006  RH  090%=      5-min Rain = 0
KSE2 140939Z 11008KT 01/M01 A3033 RMK A01 T00071008  RH  090%=      5-min Rain = 0
KSE2 140940Z 10007KT 01/M01 A3033 RMK A01 T00061009  RH  090%=      5-min Rain = 0
KSE2 140941Z 11006KT 01/M01 A3033 RMK A01 T00051010  RH  090%=      5-min Rain = 0
KSE2 140942Z 10007KT 01/M01 A3033 RMK A01 T00051010  RH  090%=      5-min Rain = 0
KSE2 140943Z 10007KT 00/M01 A3033 RMK A01 T00041011  RH  090%=      5-min Rain = 0
KSE2 140944Z 10007KT 00/M01 A3033 RMK A01 T00031011  RH  090%=      5-min Rain = 0
KSE2 140945Z 11008KT 00/M01 A3033 RMK A01 T00031011  RH  090%=      5-min Rain = 0
KSE2 140946Z 10006KT 00/M01 A3033 RMK A01 T00031012  RH  090%=      5-min Rain = 0
KSE2 140947Z 11006KT 00/M01 A3033 RMK A01 T00021012  RH  090%=      5-min Rain = 0
KSE2 140948Z 11007KT 00/M01 A3033 RMK A01 T00021012  RH  090%=      5-min Rain = 0
KSE2 140949Z 10006KT 00/M01 A3033 RMK A01 T00021012  RH  090%=      5-min Rain = 0
KSE2 140950Z 11006KT 00/M01 A3033 RMK A01 T00021012  RH  090%=      5-min Rain = 0
KSE2 140951Z 11006KT 00/M01 A3033 RMK A01 T00011013  RH  090%=      5-min Rain = 0
KSE2 140952Z 11006KT 00/01 A3033 RMK A01 T00000-13  RH  091%=      5-min Rain = 0
KSE2 140953Z 11006KT 00/01 A3033 RMK A01 T00000-13  RH  091%=      5-min Rain = 0
KSE2 140954Z 11005KT 00/01 A3033 RMK A01 T00-00-13  RH  091%=      5-min Rain = 0
KSE2 140955Z 11005KT 00/01 A3033 RMK A01 T00-00-13  RH  091%=      5-min Rain = 0
KSE2 140956Z 11005KT M00/M01 A3033 RMK A01 T10011013  RH  091%=      5-min Rain = 0
KSE2 140957Z 10005KT M00/M01 A3033 RMK A01 T10011013  RH  091%=      5-min Rain = 0
KSE2 140958Z 11004KT M00/M01 A3034 RMK A01 T10011013  RH  092%=      5-min Rain = 0
KSE2 140959Z 11004KT M00/M01 A3033 RMK A01 T10021014  RH  092%=      5-min Rain = 0
KSE2 141000Z 11005KT M00/M01 A3033 RMK A01 T10021014  RH  092%=      5-min Rain = 0
KSE2 141001Z 11006KT M00/M01 A3033 RMK A01 T10031014  RH  092%=      5-min Rain = 0
KSE2 141002Z 12006KT M00/M01 A3033 RMK A01 T10031014  RH  092%=      5-min Rain = 0
KSE2 141003Z 11005KT M00/M01 A3033 RMK A01 T10031014  RH  092%=      5-min Rain = 0
KSE2 141004Z 11005KT M00/M01 A3033 RMK A01 T10031014  RH  092%=      5-min Rain = 0
KSE2 141005Z 10005KT M00/M01 A3034 RMK A01 T10031014  RH  093%=      5-min Rain = 0
KSE2 141006Z 10005KT M00/M01 A3034 RMK A01 T10041014  RH  093%=      5-min Rain = 0
KSE2 141007Z 10005KT M00/M02 A3034 RMK A01 T10041015  RH  093%=      5-min Rain = 0
KSE2 141008Z 10006KT M00/M01 A3034 RMK A01 T10041014  RH  093%=      5-min Rain = 0
KSE2 141009Z 10005KT M00/M02 A3034 RMK A01 T10041015  RH  093%=      5-min Rain = 0
KSE2 141010Z 10006KT M00/M01 A3033 RMK A01 T10041014  RH  093%=      5-min Rain = 0
KSE2 141011Z 10005KT M00/M02 A3033 RMK A01 T10041015  RH  093%=      5-min Rain = 0
KSE2 141012Z 10005KT M00/M02 A3033 RMK A01 T10041015  RH  093%=      5-min Rain = 0
KSE2 141013Z 10005KT M01/M02 A3033 RMK A01 T10051015  RH  093%=      5-min Rain = 0
KSE2 141014Z 11005KT M01/M02 A3033 RMK A01 T10051015  RH  093%=      5-min Rain = 0
KSE2 141015Z 10005KT M01/M02 A3033 RMK A01 T10051015  RH  093%=      5-min Rain = 0
KSE2 141016Z 11005KT M01/M02 A3033 RMK A01 T10061016  RH  093%=      5-min Rain = 0
KSE2 141017Z 10004KT M01/M02 A3033 RMK A01 T10061016  RH  093%=      5-min Rain = 0
KSE2 141018Z 10005KT M01/M02 A3033 RMK A01 T10061016  RH  093%=      5-min Rain = 0
KSE2 141019Z 10005KT M01/M02 A3033 RMK A01 T10061016  RH  093%=      5-min Rain = 0
KSE2 141020Z 10005KT M01/M02 A3033 RMK A01 T10061016  RH  093%=      5-min Rain = 0
KSE2 141021Z 10005KT M01/M02 A3033 RMK A01 T10061016  RH  093%=      5-min Rain = 0
KSE2 141022Z 10005KT M01/M02 A3033 RMK A01 T10061016  RH  093%=      5-min Rain = 0
KSE2 141023Z 10004KT M01/M02 A3033 RMK A01 T10071016  RH  093%=      5-min Rain = 0
KSE2 141024Z 10005KT M01/M02 A3033 RMK A01 T10061016  RH  094%=      5-min Rain = 0
KSE2 141025Z 10005KT M01/M02 A3033 RMK A01 T10071016  RH  093%=      5-min Rain = 0
KSE2 141026Z 10005KT M01/M02 A3033 RMK A01 T10071016  RH  093%=      5-min Rain = 0
KSE2 141027Z 10005KT M01/M02 A3033 RMK A01 T10071017  RH  093%=      5-min Rain = 0
KSE2 141028Z 11004KT M01/M02 A3033 RMK A01 T10071016  RH  094%=      5-min Rain = 0
KSE2 141029Z 10006KT M01/M02 A3033 RMK A01 T10081017  RH  094%=      5-min Rain = 0
KSE2 141030Z 10005KT M01/M02 A3033 RMK A01 T10081016  RH  094%=      5-min Rain = 0
KSE2 141031Z 10004KT M01/M02 A3033 RMK A01 T10081017  RH  094%=      5-min Rain = 0
KSE2 141032Z 10005KT M01/M02 A3033 RMK A01 T10081017  RH  094%=      5-min Rain = 0
KSE2 141033Z 10005KT M01/M02 A3033 RMK A01 T10081017  RH  094%=      5-min Rain = 0
KSE2 141034Z 09005KT M01/M02 A3033 RMK A01 T10081017  RH  094%=      5-min Rain = 0
KSE2 141035Z 10005KT M01/M02 A3033 RMK A01 T10081016  RH  094%=      5-min Rain = 0
KSE2 141036Z 10004KT M01/M02 A3033 RMK A01 T10081016  RH  094%=      5-min Rain = 0
KSE2 141037Z 09005KT M01/M02 A3033 RMK A01 T10081016  RH  094%=      5-min Rain = 0
KSE2 141038Z 11005KT M01/M02 A3033 RMK A01 T10081017  RH  094%=      5-min Rain = 0
KSE2 141039Z 10006KT M01/M02 A3033 RMK A01 T10081017  RH  094%=      5-min Rain = 0
KSE2 141040Z 11005KT M01/M02 A3033 RMK A01 T10081017  RH  094%=      5-min Rain = 0
KSE2 141041Z 11006KT M01/M02 A3033 RMK A01 T10091017  RH  094%=      5-min Rain = 0
KSE2 141042Z 11005KT M01/M02 A3033 RMK A01 T10091017  RH  094%=      5-min Rain = 0
KSE2 141043Z 11006KT M01/M02 A3033 RMK A01 T10091017  RH  094%=      5-min Rain = 0
KSE2 141044Z 11005KT M01/M02 A3033 RMK A01 T10091017  RH  094%=      5-min Rain = 0
KSE2 141045Z 10005KT M01/M02 A3033 RMK A01 T10091018  RH  094%=      5-min Rain = 0
KSE2 141046Z 10005KT M01/M02 A3033 RMK A01 T10101018  RH  094%=      5-min Rain = 0
KSE2 141047Z 10005KT M01/M02 A3033 RMK A01 T10101018  RH  094%=      5-min Rain = 0
KSE2 141048Z 10005KT M01/M02 A3033 RMK A01 T10101018  RH  094%=      5-min Rain = 0
KSE2 141049Z 09004KT M01/M02 A3033 RMK A01 T10101018  RH  094%=      5-min Rain = 0
KSE2 141050Z 09004KT M01/M02 A3033 RMK A01 T10101018  RH  094%=      5-min Rain = 0
KSE2 141051Z 09004KT M01/M02 A3033 RMK A01 T10101018  RH  094%=      5-min Rain = 0
KSE2 141052Z 09004KT M01/M02 A3033 RMK A01 T10111019  RH  094%=      5-min Rain = 0
KSE2 141053Z 10005KT M01/M02 A3033 RMK A01 T10111019  RH  094%=      5-min Rain = 0
KSE2 141054Z 10005KT M01/M02 A3033 RMK A01 T10111019  RH  094%=      5-min Rain = 0
KSE2 141055Z 11005KT M01/M02 A3033 RMK A01 T10111018  RH  094%=      5-min Rain = 0
KSE2 141056Z 11004KT M01/M02 A3033 RMK A01 T10111018  RH  095%=      5-min Rain = 0
KSE2 141057Z 11005KT M01/M02 A3033 RMK A01 T10111019  RH  095%=      5-min Rain = 0
KSE2 141058Z 11005KT M01/M02 A3033 RMK A01 T10111019  RH  095%=      5-min Rain = 0
KSE2 141059Z 11005KT M01/M02 A3033 RMK A01 T10111019  RH  095%=      5-min Rain = 0
KSE2 141100Z 11005KT M01/M02 A3033 RMK A01 T10121019  RH  095%=      5-min Rain = 0
KSE2 141101Z 11005KT M01/M02 A3033 RMK A01 T10111019  RH  095%=      5-min Rain = 0
KSE2 141102Z 11005KT M01/M02 A3033 RMK A01 T10111019  RH  095%=      5-min Rain = 0
KSE2 141103Z 11005KT M01/M02 A3033 RMK A01 T10121019  RH  095%=      5-min Rain = 0
KSE2 141104Z 12005KT M01/M02 A3033 RMK A01 T10121019  RH  095%=      5-min Rain = 0
KSE2 141105Z 11005KT M01/M02 A3033 RMK A01 T10121019  RH  095%=      5-min Rain = 0
KSE2 141106Z 11005KT M01/M02 A3033 RMK A01 T10121019  RH  095%=      5-min Rain = 0
KSE2 141107Z 11005KT M01/M02 A3033 RMK A01 T10121020  RH  095%=      5-min Rain = 0
KSE2 141108Z 11004KT M01/M02 A3033 RMK A01 T10121020  RH  095%=      5-min Rain = 0
KSE2 141109Z 10004KT M01/M02 A3034 RMK A01 T10121020  RH  095%=      5-min Rain = 0
KSE2 141110Z 11004KT M01/M02 A3034 RMK A01 T10131020  RH  095%=      5-min Rain = 0
KSE2 141111Z 10004KT M01/M02 A3033 RMK A01 T10131020  RH  095%=      5-min Rain = 0
KSE2 141112Z 11005KT M01/M02 A3033 RMK A01 T10131020  RH  095%=      5-min Rain = 0
KSE2 141113Z 10004KT M01/M02 A3033 RMK A01 T10131020  RH  095%=      5-min Rain = 0
KSE2 141114Z 10004KT M01/M02 A3033 RMK A01 T10131020  RH  095%=      5-min Rain = 0
KSE2 141115Z 10004KT M01/M02 A3033 RMK A01 T10131020  RH  095%=      5-min Rain = 0
KSE2 141116Z 11004KT M01/M02 A3033 RMK A01 T10131020  RH  095%=      5-min Rain = 0
KSE2 141117Z 10005KT M01/M02 A3033 RMK A01 T10131020  RH  095%=      5-min Rain = 0
KSE2 141118Z 11004KT M01/M02 A3033 RMK A01 T10131020  RH  095%=      5-min Rain = 0
KSE2 141119Z 11004KT M01/M02 A3033 RMK A01 T10131020  RH  095%=      5-min Rain = 0
KSE2 141120Z 10005KT M01/M02 A3033 RMK A01 T10141021  RH  095%=      5-min Rain = 0
KSE2 141121Z 09004KT M01/M02 A3033 RMK A01 T10141020  RH  095%=      5-min Rain = 0
KSE2 141122Z 09004KT M01/M02 A3033 RMK A01 T10141021  RH  095%=      5-min Rain = 0
KSE2 141123Z 09004KT M01/M02 A3033 RMK A01 T10141020  RH  095%=      5-min Rain = 0
KSE2 141124Z 09004KT M01/M02 A3033 RMK A01 T10141021  RH  095%=      5-min Rain = 0
KSE2 141125Z 09004KT M01/M02 A3033 RMK A01 T10141021  RH  095%=      5-min Rain = 0
KSE2 141126Z 10004KT M01/M02 A3033 RMK A01 T10141021  RH  095%=      5-min Rain = 0
KSE2 141127Z 10004KT M01/M02 A3033 RMK A01 T10141021  RH  095%=      5-min Rain = 0
KSE2 141128Z 09005KT M01/M02 A3033 RMK A01 T10141021  RH  095%=      5-min Rain = 0
KSE2 141129Z 10005KT M01/M02 A3033 RMK A01 T10141021  RH  095%=      5-min Rain = 0
KSE2 141130Z 10005KT M01/M02 A3033 RMK A01 T10141021  RH  095%=      5-min Rain = 0
KSE2 141131Z 10005KT M01/M02 A3033 RMK A01 T10141021  RH  095%=      5-min Rain = 0
KSE2 141132Z 11005KT M01/M02 A3033 RMK A01 T10141021  RH  095%=      5-min Rain = 0
KSE2 141133Z 10005KT M02/M02 A3033 RMK A01 T10151021  RH  095%=      5-min Rain = 0
KSE2 141134Z 10005KT M02/M02 A3033 RMK A01 T10151021  RH  095%=      5-min Rain = 0
KSE2 141135Z 10005KT M02/M02 A3033 RMK A01 T10151021  RH  095%=      5-min Rain = 0
KSE2 141136Z 10005KT M02/M02 A3033 RMK A01 T10151022  RH  095%=      5-min Rain = 0
KSE2 141137Z 10005KT M02/M02 A3033 RMK A01 T10151022  RH  095%=      5-min Rain = 0
KSE2 141138Z 10004KT M02/M02 A3033 RMK A01 T10151022  RH  095%=      5-min Rain = 0
KSE2 141139Z 11005KT M02/M02 A3033 RMK A01 T10151022  RH  095%=      5-min Rain = 0
KSE2 141140Z 11004KT M02/M02 A3033 RMK A01 T10151021  RH  095%=      5-min Rain = 0
KSE2 141141Z 11004KT M02/M02 A3033 RMK A01 T10151022  RH  095%=      5-min Rain = 0
KSE2 141142Z 10004KT M02/M02 A3033 RMK A01 T10151022  RH  095%=      5-min Rain = 0
KSE2 141143Z 10004KT M02/M02 A3033 RMK A01 T10151022  RH  095%=      5-min Rain = 0
KSE2 141144Z 10004KT M02/M02 A3033 RMK A01 T10151022  RH  096%=      5-min Rain = 0
KSE2 141145Z 10004KT M02/M02 A3033 RMK A01 T10151021  RH  096%=      5-min Rain = 0
KSE2 141146Z 10004KT M02/M02 A3033 RMK A01 T10151022  RH  095%=      5-min Rain = 0
KSE2 141147Z 10004KT M02/M02 A3033 RMK A01 T10151022  RH  095%=      5-min Rain = 0
KSE2 141148Z 10003KT M02/M02 A3033 RMK A01 T10161022  RH  095%=      5-min Rain = 0
KSE2 141149Z 10004KT M02/M02 A3033 RMK A01 T10151022  RH  095%=      5-min Rain = 0
KSE2 141150Z 10004KT M02/M02 A3033 RMK A01 T10161022  RH  095%=      5-min Rain = 0
KSE2 141151Z 09004KT M02/M02 A3033 RMK A01 T10161022  RH  095%=      5-min Rain = 0
KSE2 141152Z 10004KT M02/M02 A3033 RMK A01 T10161022  RH  095%=      5-min Rain = 0
KSE2 141153Z 10004KT M02/M02 A3034 RMK A01 T10161022  RH  095%=      5-min Rain = 0
KSE2 141154Z 10004KT M02/M02 A3034 RMK A01 T10161023  RH  095%=      5-min Rain = 0
KSE2 141155Z 11004KT M02/M02 A3034 RMK A01 T10171023  RH  095%=      5-min Rain = 0
KSE2 141156Z 11004KT M02/M02 A3034 RMK A01 T10171023  RH  095%=      5-min Rain = 0
KSE2 141157Z 10004KT M02/M02 A3034 RMK A01 T10171023  RH  095%=      5-min Rain = 0
KSE2 141158Z 10004KT M02/M02 A3034 RMK A01 T10171023  RH  095%=      5-min Rain = 0
KSE2 141159Z 09004KT M02/M02 A3034 RMK A01 T10171023  RH  096%=      5-min Rain = 0
KSE2 141200Z 09003KT M02/M02 A3034 RMK A01 T10171023  RH  095%=      5-min Rain = 0
KSE2 141201Z 09003KT M02/M02 A3033 RMK A01 T10171024  RH  095%=      5-min Rain = 0
KSE2 141202Z 09003KT M02/M02 A3033 RMK A01 T10181024  RH  095%=      5-min Rain = 0
KSE2 141203Z 09004KT M02/M02 A3033 RMK A01 T10181024  RH  096%=      5-min Rain = 0
KSE2 141204Z 09004KT M02/M02 A3033 RMK A01 T10171024  RH  096%=      5-min Rain = 0
KSE2 141205Z 09004KT M02/M02 A3033 RMK A01 T10171023  RH  096%=      5-min Rain = 0
KSE2 141206Z 09004KT M02/M02 A3033 RMK A01 T10171024  RH  096%=      5-min Rain = 0
KSE2 141207Z 09004KT M02/M02 A3033 RMK A01 T10181024  RH  096%=      5-min Rain = 0
KSE2 141208Z 09004KT M02/M02 A3033 RMK A01 T10171023  RH  096%=      5-min Rain = 0
KSE2 141209Z 09004KT M02/M02 A3033 RMK A01 T10171023  RH  096%=      5-min Rain = 0
KSE2 141210Z 09004KT M02/M02 A3033 RMK A01 T10171023  RH  096%=      5-min Rain = 0
KSE2 141211Z 08004KT M02/M02 A3033 RMK A01 T10171023  RH  096%=      5-min Rain = 0
KSE2 141212Z 09004KT M02/M02 A3033 RMK A01 T10171023  RH  096%=      5-min Rain = 0
KSE2 141213Z 09004KT M02/M02 A3033 RMK A01 T10171024  RH  096%=      5-min Rain = 0
KSE2 141214Z 09004KT M02/M02 A3033 RMK A01 T10181024  RH  096%=      5-min Rain = 0
KSE2 141215Z 09004KT M02/M02 A3033 RMK A01 T10171024  RH  096%=      5-min Rain = 0
KSE2 141216Z 09004KT M02/M02 A3033 RMK A01 T10171023  RH  096%=      5-min Rain = 0
KSE2 141217Z 09004KT M02/M02 A3033 RMK A01 T10171024  RH  096%=      5-min Rain = 0
KSE2 141218Z 09006KT M02/M02 A3033 RMK A01 T10171023  RH  096%=      5-min Rain = 0
KSE2 141219Z 09007KT M02/M02 A3034 RMK A01 T10171023  RH  096%=      5-min Rain = 0
KSE2 141220Z 10006KT M02/M02 A3034 RMK A01 T10161022  RH  096%=      5-min Rain = 0
KSE2 141221Z 07004KT M02/M02 A3034 RMK A01 T10161022  RH  096%=      5-min Rain = 0
KSE2 141222Z 08005KT M02/M02 A3034 RMK A01 T10161021  RH  096%=      5-min Rain = 0
KSE2 141223Z 07006KT M02/M02 A3034 RMK A01 T10161022  RH  096%=      5-min Rain = 0
KSE2 141224Z 08006KT M02/M02 A3034 RMK A01 T10151021  RH  096%=      5-min Rain = 0
KSE2 141225Z 09006KT M02/M02 A3034 RMK A01 T10151021  RH  096%=      5-min Rain = 0
KSE2 141226Z 09006KT M02/M02 A3034 RMK A01 T10161022  RH  096%=      5-min Rain = 0
KSE2 141227Z 09004KT M02/M02 A3034 RMK A01 T10151021  RH  096%=      5-min Rain = 0
KSE2 141228Z 08003KT M02/M02 A3034 RMK A01 T10151021  RH  096%=      5-min Rain = 0
KSE2 141229Z 09004KT M02/M02 A3034 RMK A01 T10151021  RH  096%=      5-min Rain = 0
KSE2 141230Z 08003KT M02/M02 A3034 RMK A01 T10151021  RH  096%=      5-min Rain = 0
KSE2 141231Z 09003KT M02/M02 A3034 RMK A01 T10151021  RH  096%=      5-min Rain = 0
KSE2 141232Z 09003KT M02/M02 A3034 RMK A01 T10161021  RH  096%=      5-min Rain = 0
KSE2 141233Z 09005KT M02/M02 A3034 RMK A01 T10161021  RH  096%=      5-min Rain = 0
KSE2 141234Z 09004KT M02/M02 A3034 RMK A01 T10161021  RH  096%=      5-min Rain = 0
KSE2 141235Z 09003KT M02/M02 A3034 RMK A01 T10161022  RH  096%=      5-min Rain = 0
KSE2 141236Z 10004KT M02/M02 A3034 RMK A01 T10161022  RH  096%=      5-min Rain = 0
KSE2 141237Z 09004KT M02/M02 A3034 RMK A01 T10161022  RH  096%=      5-min Rain = 0
KSE2 141238Z 09004KT M02/M02 A3034 RMK A01 T10161022  RH  096%=      5-min Rain = 0
KSE2 141239Z 08004KT M02/M02 A3034 RMK A01 T10171022  RH  096%=      5-min Rain = 0
KSE2 141240Z 08006KT M02/M02 A3034 RMK A01 T10171023  RH  096%=      5-min Rain = 0
KSE2 141241Z 07006KT M02/M02 A3034 RMK A01 T10171023  RH  096%=      5-min Rain = 0
KSE2 141242Z 08007KT M02/M02 A3034 RMK A01 T10181024  RH  096%=      5-min Rain = 0
KSE2 141243Z 07007KT M02/M02 A3034 RMK A01 T10181024  RH  096%=      5-min Rain = 0
KSE2 141244Z 08005KT M02/M02 A3034 RMK A01 T10181024  RH  096%=      5-min Rain = 0
KSE2 141245Z 08007KT M02/M02 A3034 RMK A01 T10181024  RH  096%=      5-min Rain = 0
KSE2 141246Z 08007KT M02/M02 A3034 RMK A01 T10181024  RH  096%=      5-min Rain = 0
KSE2 141247Z 08006KT M02/M02 A3034 RMK A01 T10181024  RH  096%=      5-min Rain = 0
KSE2 141248Z 09005KT M02/M02 A3034 RMK A01 T10181024  RH  096%=      5-min Rain = 0
KSE2 141249Z 08006KT M02/M02 A3034 RMK A01 T10181024  RH  096%=      5-min Rain = 0
KSE2 141250Z 08006KT M02/M02 A3034 RMK A01 T10191024  RH  096%=      5-min Rain = 0
KSE2 141251Z 08006KT M02/M02 A3034 RMK A01 T10181023  RH  096%=      5-min Rain = 0
KSE2 141252Z 09007KT M02/M02 A3034 RMK A01 T10181023  RH  096%=      5-min Rain = 0
KSE2 141253Z 10007KT M02/M02 A3035 RMK A01 T10181023  RH  096%=      5-min Rain = 0
KSE2 141254Z 09007KT M02/M02 A3035 RMK A01 T10181023  RH  096%=      5-min Rain = 0
KSE2 141255Z 10006KT M02/M02 A3035 RMK A01 T10181023  RH  097%=      5-min Rain = 0
KSE2 141256Z 10006KT M02/M02 A3035 RMK A01 T10181023  RH  097%=      5-min Rain = 0
KSE2 141257Z 09004KT M02/M02 A3035 RMK A01 T10181022  RH  097%=      5-min Rain = 0
KSE2 141258Z 10007KT M02/M02 A3035 RMK A01 T10171022  RH  097%=      5-min Rain = 0
KSE2 141259Z 10006KT M02/M02 A3035 RMK A01 T10181022  RH  097%=      5-min Rain = 0
KSE2 141300Z 09005KT M02/M02 A3035 RMK A01 T10181022  RH  097%=      5-min Rain = 0
KSE2 141301Z 08006KT M02/M02 A3035 RMK A01 T10181022  RH  097%=      5-min Rain = 0
KSE2 141302Z 08006KT M02/M02 A3035 RMK A01 T10171022  RH  097%=      5-min Rain = 0
KSE2 141303Z 08005KT M02/M02 A3035 RMK A01 T10181022  RH  097%=      5-min Rain = 0
KSE2 141304Z 11004KT M02/M02 A3035 RMK A01 T10181023  RH  097%=      5-min Rain = 0
KSE2 141305Z 08004KT M02/M02 A3035 RMK A01 T10181022  RH  097%=      5-min Rain = 0
KSE2 141306Z 10005KT M02/M02 A3035 RMK A01 T10171022  RH  097%=      5-min Rain = 0
KSE2 141307Z 09004KT M02/M02 A3035 RMK A01 T10171022  RH  097%=      5-min Rain = 0
KSE2 141308Z 10004KT M02/M02 A3035 RMK A01 T10171021  RH  097%=      5-min Rain = 0
KSE2 141309Z 10004KT M02/M02 A3035 RMK A01 T10171021  RH  097%=      5-min Rain = 0
KSE2 141310Z 10005KT M02/M02 A3035 RMK A01 T10171021  RH  097%=      5-min Rain = 0
KSE2 141311Z 09005KT M02/M02 A3035 RMK A01 T10171022  RH  097%=      5-min Rain = 0
KSE2 141312Z 09005KT M02/M02 A3035 RMK A01 T10171022  RH  097%=      5-min Rain = 0
KSE2 141313Z 09004KT M02/M02 A3035 RMK A01 T10171021  RH  097%=      5-min Rain = 0
KSE2 141314Z 08004KT M02/M02 A3035 RMK A01 T10171021  RH  097%=      5-min Rain = 0
KSE2 141315Z 08005KT M02/M02 A3035 RMK A01 T10171021  RH  097%=      5-min Rain = 0
KSE2 141316Z 10004KT M02/M02 A3035 RMK A01 T10161021  RH  097%=      5-min Rain = 0
KSE2 141317Z 11006KT M02/M02 A3035 RMK A01 T10171021  RH  097%=      5-min Rain = 0
KSE2 141318Z 10006KT M02/M02 A3035 RMK A01 T10171021  RH  097%=      5-min Rain = 0
KSE2 141319Z 10006KT M02/M02 A3035 RMK A01 T10171022  RH  097%=      5-min Rain = 0
KSE2 141320Z 10005KT M02/M02 A3035 RMK A01 T10171022  RH  097%=      5-min Rain = 0
KSE2 141321Z 11006KT M02/M02 A3035 RMK A01 T10181022  RH  097%=      5-min Rain = 0
KSE2 141322Z 10006KT M02/M02 A3035 RMK A01 T10171022  RH  097%=      5-min Rain = 0
KSE2 141323Z 10006KT M02/M02 A3035 RMK A01 T10181022  RH  097%=      5-min Rain = 0
KSE2 141324Z 10006KT M02/M02 A3035 RMK A01 T10181023  RH  097%=      5-min Rain = 0
KSE2 141325Z 09005KT M02/M02 A3035 RMK A01 T10181022  RH  097%=      5-min Rain = 0
KSE2 141326Z 09004KT M02/M02 A3035 RMK A01 T10181022  RH  097%=      5-min Rain = 0
KSE2 141327Z 09005KT M02/M02 A3035 RMK A01 T10181022  RH  097%=      5-min Rain = 0
KSE2 141328Z 09005KT M02/M02 A3035 RMK A01 T10181022  RH  097%=      5-min Rain = 0
KSE2 141329Z 09005KT M02/M02 A3035 RMK A01 T10181022  RH  097%=      5-min Rain = 0
KSE2 141330Z 09004KT M02/M02 A3035 RMK A01 T10181022  RH  097%=      5-min Rain = 0
KSE2 141331Z 09005KT M02/M02 A3035 RMK A01 T10181022  RH  097%=      5-min Rain = 0
KSE2 141332Z 09004KT M02/M02 A3035 RMK A01 T10181022  RH  097%=      5-min Rain = 0
KSE2 141333Z 08003KT M02/M02 A3035 RMK A01 T10181022  RH  097%=      5-min Rain = 0
KSE2 141334Z 08004KT M02/M02 A3035 RMK A01 T10181022  RH  097%=      5-min Rain = 0
KSE2 141335Z 08004KT M02/M02 A3035 RMK A01 T10181022  RH  097%=      5-min Rain = 0
KSE2 141336Z 08004KT M02/M02 A3035 RMK A01 T10181022  RH  097%=      5-min Rain = 0
KSE2 141337Z 08004KT M02/M02 A3035 RMK A01 T10181022  RH  097%=      5-min Rain = 0
KSE2 141338Z 09004KT M02/M02 A3035 RMK A01 T10181022  RH  097%=      5-min Rain = 0
KSE2 141339Z 09004KT M02/M02 A3035 RMK A01 T10181022  RH  097%=      5-min Rain = 0
KSE2 141340Z 09003KT M02/M02 A3035 RMK A01 T10181022  RH  097%=      5-min Rain = 0
KSE2 141341Z 10003KT M02/M02 A3035 RMK A01 T10181022  RH  097%=      5-min Rain = 0
KSE2 141342Z 10004KT M02/M02 A3035 RMK A01 T10181022  RH  097%=      5-min Rain = 0
KSE2 141343Z 10003KT M02/M02 A3035 RMK A01 T10171022  RH  097%=      5-min Rain = 0
KSE2 141344Z 10005KT M02/M02 A3035 RMK A01 T10171022  RH  097%=      5-min Rain = 0
KSE2 141345Z 11006KT M02/M02 A3035 RMK A01 T10181022  RH  097%=      5-min Rain = 0
KSE2 141346Z 10007KT M02/M02 A3035 RMK A01 T10181022  RH  097%=      5-min Rain = 0
KSE2 141347Z 10006KT M02/M02 A3035 RMK A01 T10181022  RH  097%=      5-min Rain = 0
KSE2 141348Z 11005KT M02/M02 A3035 RMK A01 T10181022  RH  097%=      5-min Rain = 0
KSE2 141349Z 11006KT M02/M02 A3035 RMK A01 T10181022  RH  097%=      5-min Rain = 0
KSE2 141350Z 11005KT M02/M02 A3035 RMK A01 T10181022  RH  097%=      5-min Rain = 0
KSE2 141351Z 11004KT M02/M02 A3035 RMK A01 T10181022  RH  097%=      5-min Rain = 0
KSE2 141352Z 12004KT M02/M02 A3035 RMK A01 T10181022  RH  097%=      5-min Rain = 0
KSE2 141353Z 11004KT M02/M02 A3036 RMK A01 T10171022  RH  097%=      5-min Rain = 0
KSE2 141354Z 10004KT M02/M02 A3036 RMK A01 T10171021  RH  097%=      5-min Rain = 0
KSE2 141355Z 10004KT M02/M02 A3036 RMK A01 T10161020  RH  097%=      5-min Rain = 0
KSE2 141356Z 09004KT M02/M02 A3036 RMK A01 T10161020  RH  097%=      5-min Rain = 0
KSE2 141357Z 10005KT M02/M02 A3036 RMK A01 T10161020  RH  097%=      5-min Rain = 0
KSE2 141358Z 09004KT M02/M02 A3036 RMK A01 T10161020  RH  097%=      5-min Rain = 0
KSE2 141359Z 09003KT M02/M02 A3036 RMK A01 T10151020  RH  097%=      5-min Rain = 0
KSE2 141400Z 09006KT M01/M02 A3036 RMK A01 T10141019  RH  097%=      5-min Rain = 0
KSE2 141401Z 10005KT M01/M02 A3036 RMK A01 T10141019  RH  096%=      5-min Rain = 0
KSE2 141402Z 10005KT M01/M02 A3036 RMK A01 T10141019  RH  096%=      5-min Rain = 0
KSE2 141403Z 10005KT M01/M02 A3036 RMK A01 T10141020  RH  096%=      5-min Rain = 0
KSE2 141404Z 10005KT M01/M02 A3036 RMK A01 T10141019  RH  096%=      5-min Rain = 0
KSE2 141405Z 10005KT M01/M02 A3036 RMK A01 T10141019  RH  096%=      5-min Rain = 0
KSE2 141406Z 10004KT M01/M02 A3036 RMK A01 T10141019  RH  096%=      5-min Rain = 0
KSE2 141407Z 11005KT M01/M02 A3036 RMK A01 T10131019  RH  096%=      5-min Rain = 0
KSE2 141408Z 11005KT M01/M02 A3036 RMK A01 T10131018  RH  096%=      5-min Rain = 0
KSE2 141409Z 11006KT M01/M02 A3036 RMK A01 T10131018  RH  096%=      5-min Rain = 0
KSE2 141410Z 11005KT M01/M02 A3036 RMK A01 T10121018  RH  096%=      5-min Rain = 0
KSE2 141411Z 11006KT M01/M02 A3036 RMK A01 T10121017  RH  096%=      5-min Rain = 0
KSE2 141412Z 10006KT M01/M02 A3036 RMK A01 T10111017  RH  096%=      5-min Rain = 0
KSE2 141413Z 10005KT M01/M02 A3036 RMK A01 T10121018  RH  096%=      5-min Rain = 0
KSE2 141414Z 11004KT M01/M02 A3036 RMK A01 T10121018  RH  096%=      5-min Rain = 0
KSE2 141415Z 12004KT M01/M02 A3036 RMK A01 T10101016  RH  096%=      5-min Rain = 0
KSE2 141416Z 11006KT M01/M02 A3036 RMK A01 T10091015  RH  096%=      5-min Rain = 0
KSE2 141417Z 11006KT M01/M02 A3036 RMK A01 T10091016  RH  096%=      5-min Rain = 0
KSE2 141418Z 10005KT M01/M02 A3036 RMK A01 T10091016  RH  095%=      5-min Rain = 0
KSE2 141419Z 12004KT M01/M02 A3036 RMK A01 T10081015  RH  095%=      5-min Rain = 0
KSE2 141420Z 11005KT M01/M01 A3036 RMK A01 T10071014  RH  095%=      5-min Rain = 0
KSE2 141421Z 12005KT M01/M01 A3036 RMK A01 T10061013  RH  095%=      5-min Rain = 0
KSE2 141422Z 12006KT M01/M01 A3036 RMK A01 T10051012  RH  095%=      5-min Rain = 0
KSE2 141423Z 11006KT M01/M01 A3036 RMK A01 T10061014  RH  094%=      5-min Rain = 0
KSE2 141424Z 11006KT M01/M02 A3036 RMK A01 T10061015  RH  094%=      5-min Rain = 0
KSE2 141425Z 11007KT M01/M01 A3036 RMK A01 T10051013  RH  094%=      5-min Rain = 0
KSE2 141426Z 11006KT M01/M01 A3036 RMK A01 T10051014  RH  094%=      5-min Rain = 0
KSE2 141427Z 12005KT M00/M01 A3036 RMK A01 T10041014  RH  093%=      5-min Rain = 0
KSE2 141428Z 13005KT M00/M01 A3036 RMK A01 T10041014  RH  093%=      5-min Rain = 0
KSE2 141429Z 13006KT M00/M01 A3036 RMK A01 T10031013  RH  093%=      5-min Rain = 0
KSE2 141430Z 13006KT M00/M01 A3036 RMK A01 T10031014  RH  092%=      5-min Rain = 0
KSE2 141431Z 13006KT M00/M01 A3036 RMK A01 T10031014  RH  092%=      5-min Rain = 0
KSE2 141432Z 12007KT M00/M02 A3037 RMK A01 T10021015  RH  092%=      5-min Rain = 0
KSE2 141433Z 12005KT M00/M02 A3037 RMK A01 T10021015  RH  091%=      5-min Rain = 0
KSE2 141434Z 12004KT 00/01 A3037 RMK A01 T00000-11  RH  092%=      5-min Rain = 0
KSE2 141435Z 13005KT 00/M01 A3037 RMK A01 T00011011  RH  091%=      5-min Rain = 0
KSE2 141436Z 12005KT 00/M01 A3037 RMK A01 T00021010  RH  091%=      5-min Rain = 0
KSE2 141437Z 13006KT 00/M01 A3037 RMK A01 T00021012  RH  090%=      5-min Rain = 0
KSE2 141438Z 12005KT 00/M01 A3037 RMK A01 T00021013  RH  090%=      5-min Rain = 0
KSE2 141439Z 12005KT 00/M01 A3037 RMK A01 T00031012  RH  090%=      5-min Rain = 0
KSE2 141440Z 12005KT 00/M02 A3037 RMK A01 T00021015  RH  089%=      5-min Rain = 0
KSE2 141441Z 10007KT 00/M01 A3037 RMK A01 T00031013  RH  089%=      5-min Rain = 0
KSE2 141442Z 11007KT 00/M01 A3037 RMK A01 T00041014  RH  088%=      5-min Rain = 0
KSE2 141443Z 10008KT 00/M02 A3037 RMK A01 T00031015  RH  088%=      5-min Rain = 0
KSE2 141444Z 11007KT 00/M02 A3037 RMK A01 T00031016  RH  087%=      5-min Rain = 0
KSE2 141445Z 11007KT 00/M02 A3037 RMK A01 T00031018  RH  086%=      5-min Rain = 0
KSE2 141446Z 12006KT 00/M02 A3037 RMK A01 T00031017  RH  086%=      5-min Rain = 0
KSE2 141447Z 13007KT 00/M01 A3037 RMK A01 T00041014  RH  087%=      5-min Rain = 0
KSE2 141448Z 11007KT 01/M02 A3037 RMK A01 T00051015  RH  087%=      5-min Rain = 0
KSE2 141449Z 11006KT 01/M02 A3037 RMK A01 T00051015  RH  086%=      5-min Rain = 0
KSE2 141450Z 10007KT 01/M01 A3037 RMK A01 T00061014  RH  086%=      5-min Rain = 0
KSE2 141451Z 11006KT 01/M02 A3037 RMK A01 T00061015  RH  085%=      5-min Rain = 0
KSE2 141452Z 11006KT 01/M01 A3037 RMK A01 T00081013  RH  086%=      5-min Rain = 0
KSE2 141453Z 10006KT 01/M01 A3037 RMK A01 T00091011  RH  086%=      5-min Rain = 0
KSE2 141454Z 11005KT 01/M01 A3037 RMK A01 T00101012  RH  086%=      5-min Rain = 0
KSE2 141455Z 11006KT 01/M01 A3037 RMK A01 T00121009  RH  086%=      5-min Rain = 0
KSE2 141456Z 13006KT 01/M01 A3037 RMK A01 T00131010  RH  085%=      5-min Rain = 0
KSE2 141457Z 11005KT 01/M01 A3037 RMK A01 T00131011  RH  084%=      5-min Rain = 0
KSE2 141458Z 12006KT 01/M01 A3037 RMK A01 T00141010  RH  084%=      5-min Rain = 0
KSE2 141459Z 11007KT 01/M01 A3038 RMK A01 T00141011  RH  084%=      5-min Rain = 0
KSE2 141500Z 11008KT 02/M01 A3038 RMK A01 T00151011  RH  083%=      5-min Rain = 0
KSE2 141501Z 10007KT 01/M02 A3038 RMK A01 T00131015  RH  082%=      5-min Rain = 0
KSE2 141502Z 10007KT 01/M01 A3038 RMK A01 T00141012  RH  083%=      5-min Rain = 0
KSE2 141503Z 11008KT 01/M01 A3038 RMK A01 T00121014  RH  082%=      5-min Rain = 0
KSE2 141504Z 11008KT 01/M01 A3038 RMK A01 T00121014  RH  083%=      5-min Rain = 0
KSE2 141505Z 11008KT 01/M01 A3038 RMK A01 T00121014  RH  083%=      5-min Rain = 0
KSE2 141506Z 11007KT 01/M01 A3038 RMK A01 T00131013  RH  083%=      5-min Rain = 0
KSE2 141507Z 11006KT 01/M01 A3038 RMK A01 T00131013  RH  083%=      5-min Rain = 0
KSE2 141508Z 12007KT 01/M01 A3038 RMK A01 T00131013  RH  083%=      5-min Rain = 0
KSE2 141509Z 11007KT 01/M01 A3038 RMK A01 T00141014  RH  082%=      5-min Rain = 0
KSE2 141510Z 12005KT 01/M01 A3038 RMK A01 T00141012  RH  083%=      5-min Rain = 0
KSE2 141511Z 10005KT 02/M01 A3038 RMK A01 T00181006  RH  084%=      5-min Rain = 0
KSE2 141512Z 10008KT 02/M01 A3038 RMK A01 T00191009  RH  082%=      5-min Rain = 0
KSE2 141513Z 11007KT 02/M01 A3038 RMK A01 T00181012  RH  081%=      5-min Rain = 0
KSE2 141514Z 09004KT 02/M01 A3038 RMK A01 T00171013  RH  081%=      5-min Rain = 0
KSE2 141515Z 09005KT 02/M01 A3038 RMK A01 T00171011  RH  082%=      5-min Rain = 0
KSE2 141516Z 11006KT 02/M01 A3038 RMK A01 T00191009  RH  082%=      5-min Rain = 0
KSE2 141517Z 11006KT 02/M01 A3038 RMK A01 T00201009  RH  081%=      5-min Rain = 0
KSE2 141518Z 11005KT 02/M01 A3038 RMK A01 T00211007  RH  081%=      5-min Rain = 0
KSE2 141519Z 11006KT 02/M01 A3038 RMK A01 T00221008  RH  081%=      5-min Rain = 0
KSE2 141520Z 11006KT 02/M01 A3038 RMK A01 T00221009  RH  080%=      5-min Rain = 0
KSE2 141521Z 10006KT 02/M01 A3038 RMK A01 T00231008  RH  080%=      5-min Rain = 0
KSE2 141522Z 09006KT 02/M01 A3038 RMK A01 T00241007  RH  080%=      5-min Rain = 0
KSE2 141523Z 10007KT 03/M01 A3038 RMK A01 T00251008  RH  079%=      5-min Rain = 0
KSE2 141524Z 10006KT 02/M01 A3038 RMK A01 T00241009  RH  079%=      5-min Rain = 0
KSE2 141525Z 12006KT 02/M01 A3038 RMK A01 T00241007  RH  080%=      5-min Rain = 0
KSE2 141526Z 13007KT 03/M01 A3038 RMK A01 T00261007  RH  079%=      5-min Rain = 0
KSE2 141527Z 12006KT 03/M01 A3038 RMK A01 T00251008  RH  079%=      5-min Rain = 0
KSE2 141528Z 12006KT 03/M01 A3038 RMK A01 T00251008  RH  079%=      5-min Rain = 0
KSE2 141529Z 11006KT 03/M01 A3038 RMK A01 T00261007  RH  079%=      5-min Rain = 0
KSE2 141530Z 11005KT 03/M01 A3038 RMK A01 T00281005  RH  079%=      5-min Rain = 0
KSE2 141531Z 11006KT 03/M00 A3038 RMK A01 T00291003  RH  079%=      5-min Rain = 0
KSE2 141532Z 10005KT 03/M01 A3038 RMK A01 T00291006  RH  078%=      5-min Rain = 0
KSE2 141533Z 08006KT 03/M01 A3038 RMK A01 T00291006  RH  078%=      5-min Rain = 0
KSE2 141534Z 09007KT 03/M01 A3038 RMK A01 T00301005  RH  078%=      5-min Rain = 0
KSE2 141535Z 10005KT 03/M01 A3038 RMK A01 T00301006  RH  077%=      5-min Rain = 0
KSE2 141536Z 13005KT 03/M01 A3038 RMK A01 T00301006  RH  077%=      5-min Rain = 0
KSE2 141537Z 14005KT 03/M01 A3038 RMK A01 T00311005  RH  077%=      5-min Rain = 0
KSE2 141538Z 13005KT 03/M00 A3038 RMK A01 T00331004  RH  077%=      5-min Rain = 0
KSE2 141539Z 15006KT 03/M01 A3038 RMK A01 T00321007  RH  076%=      5-min Rain = 0
KSE2 141540Z 14006KT 03/M01 A3038 RMK A01 T00331005  RH  077%=      5-min Rain = 0
KSE2 141541Z 13005KT 03/M00 A3038 RMK A01 T00341004  RH  076%=      5-min Rain = 0
KSE2 141542Z 12006KT 04/M00 A3038 RMK A01 T00361003  RH  076%=      5-min Rain = 0
KSE2 141543Z 10004KT 04/M00 A3038 RMK A01 T00371003  RH  076%=      5-min Rain = 0
KSE2 141544Z 11006KT 04/M01 A3038 RMK A01 T00371005  RH  074%=      5-min Rain = 0
KSE2 141545Z 12004KT 04/M01 A3038 RMK A01 T00351006  RH  074%=      5-min Rain = 0
KSE2 141546Z 10006KT 04/M00 A3038 RMK A01 T00361002  RH  076%=      5-min Rain = 0
KSE2 141547Z 12003KT 04/M01 A3038 RMK A01 T00371005  RH  074%=      5-min Rain = 0
KSE2 141548Z 10003KT 04/M01 A3038 RMK A01 T00351006  RH  074%=      5-min Rain = 0
KSE2 141549Z 12004KT 04/M00 A3038 RMK A01 T00371002  RH  075%=      5-min Rain = 0
KSE2 141550Z 12005KT 04/M00 A3038 RMK A01 T00381003  RH  074%=      5-min Rain = 0
KSE2 141551Z 10005KT 04/M00 A3039 RMK A01 T00401001  RH  075%=      5-min Rain = 0
KSE2 141552Z 11002KT 04/00 A3039 RMK A01 T00420001  RH  074%=      5-min Rain = 0
KSE2 141553Z 13004KT 04/00 A3039 RMK A01 T004400-0  RH  073%=      5-min Rain = 0
KSE2 141554Z 11005KT 04/M00 A3039 RMK A01 T00441002  RH  072%=      5-min Rain = 0
KSE2 141555Z 13005KT 04/M00 A3039 RMK A01 T00431003  RH  072%=      5-min Rain = 0
KSE2 141556Z 15005KT 04/M00 A3039 RMK A01 T00421003  RH  073%=      5-min Rain = 0
KSE2 141557Z 17006KT 04/M00 A3039 RMK A01 T00421002  RH  073%=      5-min Rain = 0
KSE2 141558Z 17006KT 04/M00 A3039 RMK A01 T00431001  RH  073%=      5-min Rain = 0
KSE2 141559Z 17007KT 05/00 A3039 RMK A01 T00450000  RH  073%=      5-min Rain = 0
KSE2 141600Z 16005KT 05/M00 A3039 RMK A01 T00451002  RH  072%=      5-min Rain = 0
KSE2 141601Z 15004KT 05/00 A3039 RMK A01 T004600-0  RH  072%=      5-min Rain = 0
KSE2 141602Z 15005KT 05/M00 A3039 RMK A01 T00471001  RH  071%=      5-min Rain = 0
KSE2 141603Z 13008KT 05/M00 A3039 RMK A01 T00471001  RH  071%=      5-min Rain = 0
KSE2 141604Z 12005KT 05/M00 A3039 RMK A01 T00461003  RH  071%=      5-min Rain = 0
KSE2 141605Z 13005KT 05/00 A3038 RMK A01 T00460001  RH  073%=      5-min Rain = 0
KSE2 141606Z 13006KT 05/00 A3038 RMK A01 T00480001  RH  072%=      5-min Rain = 0
KSE2 141607Z 13006KT 05/00 A3038 RMK A01 T004900-0  RH  070%=      5-min Rain = 0
KSE2 141608Z 12006KT 05/M00 A3038 RMK A01 T00491002  RH  070%=      5-min Rain = 0
KSE2 141609Z 12006KT 05/M00 A3038 RMK A01 T00491002  RH  070%=      5-min Rain = 0
KSE2 141610Z 15006KT 05/00 A3038 RMK A01 T005000-0  RH  070%=      5-min Rain = 0
KSE2 141611Z 14007KT 05/00 A3038 RMK A01 T005200-0  RH  069%=      5-min Rain = 0
KSE2 141612Z 12004KT 05/M00 A3038 RMK A01 T00511003  RH  068%=      5-min Rain = 0
KSE2 141613Z 12004KT 05/M00 A3038 RMK A01 T00501002  RH  069%=      5-min Rain = 0
KSE2 141614Z 17005KT 05/00 A3038 RMK A01 T00540002  RH  069%=      5-min Rain = 0
KSE2 141615Z 19005KT 06/00 A3039 RMK A01 T00550001  RH  068%=      5-min Rain = 0
KSE2 141616Z 18003KT 05/M00 A3039 RMK A01 T00531003  RH  067%=      5-min Rain = 0
KSE2 141617Z 12005KT 05/M00 A3038 RMK A01 T00531002  RH  068%=      5-min Rain = 0
KSE2 141618Z 14006KT 05/M00 A3038 RMK A01 T00541004  RH  066%=      5-min Rain = 0
KSE2 141619Z 18005KT 05/M00 A3039 RMK A01 T00541003  RH  067%=      5-min Rain = 0
KSE2 141620Z 17004KT 06/00 A3039 RMK A01 T00550000  RH  067%=      5-min Rain = 0
KSE2 141621Z 18004KT 06/00 A3038 RMK A01 T00570001  RH  067%=      5-min Rain = 0
KSE2 141622Z 19004KT 06/00 A3038 RMK A01 T00570001  RH  067%=      5-min Rain = 0
KSE2 141623Z 17004KT 06/00 A3038 RMK A01 T00570000  RH  067%=      5-min Rain = 0
KSE2 141624Z 17006KT 06/00 A3038 RMK A01 T00580001  RH  067%=      5-min Rain = 0
KSE2 141625Z 17005KT 06/M00 A3038 RMK A01 T00581002  RH  065%=      5-min Rain = 0
KSE2 141626Z 18006KT 06/M00 A3038 RMK A01 T00571001  RH  066%=      5-min Rain = 0
KSE2 141627Z 17007KT 06/M00 A3038 RMK A01 T00581001  RH  066%=      5-min Rain = 0
KSE2 141628Z 15006KT 06/M00 A3038 RMK A01 T00591002  RH  065%=      5-min Rain = 0
KSE2 141629Z 15006KT 06/M00 A3038 RMK A01 T00581003  RH  065%=      5-min Rain = 0
KSE2 141630Z 14005KT 06/M00 A3038 RMK A01 T00571003  RH  066%=      5-min Rain = 0
KSE2 141631Z 13003KT 06/M00 A3038 RMK A01 T00561003  RH  066%=      5-min Rain = 0
KSE2 141632Z 13003KT 06/M00 A3038 RMK A01 T00561001  RH  067%=      5-min Rain = 0
KSE2 141633Z 15004KT 06/00 A3038 RMK A01 T00590004  RH  068%=      5-min Rain = 0
KSE2 141634Z 13003KT 06/00 A3038 RMK A01 T00610004  RH  067%=      5-min Rain = 0
KSE2 141635Z 14004KT 06/01 A3038 RMK A01 T00630007  RH  067%=      5-min Rain = 0
KSE2 141636Z 15004KT 07/00 A3038 RMK A01 T00650004  RH  065%=      5-min Rain = 0
KSE2 141637Z 11004KT 06/00 A3038 RMK A01 T00640003  RH  065%=      5-min Rain = 0
KSE2 141638Z 13004KT 06/00 A3038 RMK A01 T00640004  RH  066%=      5-min Rain = 0
KSE2 141639Z 15003KT 06/00 A3038 RMK A01 T00640004  RH  065%=      5-min Rain = 0
KSE2 141640Z 18003KT 07/01 A3038 RMK A01 T00670005  RH  065%=      5-min Rain = 0
KSE2 141641Z 13006KT 07/01 A3038 RMK A01 T00700006  RH  063%=      5-min Rain = 0
KSE2 141642Z 13006KT 07/00 A3038 RMK A01 T00710002  RH  062%=      5-min Rain = 0
KSE2 141643Z 15005KT 07/00 A3038 RMK A01 T00690001  RH  062%=      5-min Rain = 0
KSE2 141644Z 16005KT 07/00 A3038 RMK A01 T00690001  RH  062%=      5-min Rain = 0
KSE2 141645Z 15003KT 07/M00 A3038 RMK A01 T00691002  RH  060%=      5-min Rain = 0
KSE2 141646Z 14004KT 07/00 A3038 RMK A01 T00710004  RH  063%=      5-min Rain = 0
KSE2 141647Z 15003KT 07/00 A3038 RMK A01 T00740003  RH  061%=      5-min Rain = 0
KSE2 141648Z 15006KT 08/00 A3038 RMK A01 T00770003  RH  060%=      5-min Rain = 0
KSE2 141649Z 14006KT 08/M00 A3038 RMK A01 T00761003  RH  057%=      5-min Rain = 0
KSE2 141650Z 12006KT 08/M00 A3038 RMK A01 T00761001  RH  058%=      5-min Rain = 0
KSE2 141651Z 12006KT 08/00 A3038 RMK A01 T007500-0  RH  059%=      5-min Rain = 0
KSE2 141652Z 14008KT 08/00 A3038 RMK A01 T00760001  RH  059%=      5-min Rain = 0
KSE2 141653Z 15008KT 08/M00 A3038 RMK A01 T00771004  RH  057%=      5-min Rain = 0
KSE2 141654Z 17005KT 07/M01 A3038 RMK A01 T00741006  RH  057%=      5-min Rain = 0
KSE2 141655Z 17004KT 08/M00 A3038 RMK A01 T00751003  RH  058%=      5-min Rain = 0
KSE2 141656Z 13005KT 08/M00 A3038 RMK A01 T00771001  RH  058%=      5-min Rain = 0
KSE2 141657Z 14008KT 08/00 A3038 RMK A01 T00790002  RH  058%=      5-min Rain = 0
KSE2 141658Z 13006KT 08/M00 A3038 RMK A01 T00781003  RH  057%=      5-min Rain = 0
KSE2 141659Z 13005KT 08/M00 A3038 RMK A01 T00761001  RH  058%=      5-min Rain = 0
KSE2 141700Z 18005KT 08/00 A3038 RMK A01 T00780001  RH  058%=      5-min Rain = 0
KSE2 141701Z 15004KT 08/00 A3038 RMK A01 T00800001  RH  057%=      5-min Rain = 0
KSE2 141702Z 13008KT 08/00 A3038 RMK A01 T00810001  RH  057%=      5-min Rain = 0
KSE2 141703Z 12008KT 08/00 A3038 RMK A01 T00820003  RH  057%=      5-min Rain = 0
KSE2 141704Z 12007KT 08/M00 A3038 RMK A01 T00821003  RH  055%=      5-min Rain = 0
KSE2 141705Z 13007KT 08/M00 A3038 RMK A01 T00811003  RH  055%=      5-min Rain = 0
KSE2 141706Z 15009KT 08/M01 A3038 RMK A01 T00791006  RH  055%=      5-min Rain = 0
KSE2 141707Z 17006KT 08/M00 A3038 RMK A01 T00791004  RH  056%=      5-min Rain = 0
KSE2 141708Z 16008KT 08/M00 A3038 RMK A01 T00801003  RH  056%=      5-min Rain = 0
KSE2 141709Z 15010KT 08/M00 A3038 RMK A01 T00791004  RH  056%=      5-min Rain = 0
KSE2 141710Z 14009KT 08/M00 A3038 RMK A01 T00791003  RH  056%=      5-min Rain = 0
KSE2 141711Z 14008KT 08/M00 A3038 RMK A01 T00791001  RH  057%=      5-min Rain = 0
KSE2 141712Z 15009KT 08/00 A3038 RMK A01 T008100-0  RH  057%=      5-min Rain = 0
KSE2 141713Z 13008KT 08/M00 A3038 RMK A01 T00801003  RH  056%=      5-min Rain = 0
KSE2 141714Z 14008KT 08/M00 A3038 RMK A01 T00801003  RH  056%=      5-min Rain = 0
KSE2 141715Z 15008KT 08/M00 A3038 RMK A01 T00801002  RH  056%=      5-min Rain = 0
KSE2 141716Z 16006KT 08/M00 A3038 RMK A01 T00791004  RH  056%=      5-min Rain = 0
KSE2 141717Z 17004KT 08/M00 A3038 RMK A01 T00781003  RH  057%=      5-min Rain = 0
KSE2 141718Z 17005KT 08/00 A3038 RMK A01 T00810004  RH  058%=      5-min Rain = 0
KSE2 141719Z 17005KT 09/00 A3038 RMK A01 T00850002  RH  056%=      5-min Rain = 0
KSE2 141720Z 17006KT 09/00 A3038 RMK A01 T008600-0  RH  055%=      5-min Rain = 0
KSE2 141721Z 15005KT 09/00 A3038 RMK A01 T00870001  RH  055%=      5-min Rain = 0
KSE2 141722Z 16005KT 09/00 A3038 RMK A01 T00890002  RH  054%=      5-min Rain = 0
KSE2 141723Z 14007KT 09/M00 A3037 RMK A01 T00871002  RH  053%=      5-min Rain = 0
KSE2 141724Z 15007KT 09/M00 A3037 RMK A01 T00861002  RH  054%=      5-min Rain = 0
KSE2 141725Z 14009KT 09/M00 A3037 RMK A01 T00861002  RH  054%=      5-min Rain = 0
KSE2 141726Z 18007KT 09/M00 A3037 RMK A01 T00871001  RH  054%=      5-min Rain = 0
KSE2 141727Z 16006KT 09/M00 A3037 RMK A01 T00881002  RH  054%=      5-min Rain = 0
KSE2 141728Z 14006KT 09/M01 A3037 RMK A01 T00871005  RH  053%=      5-min Rain = 0
KSE2 141729Z 14007KT 09/00 A3037 RMK A01 T00860000  RH  055%=      5-min Rain = 0
KSE2 141730Z 14008KT 09/00 A3037 RMK A01 T00880001  RH  055%=      5-min Rain = 0
KSE2 141731Z 16008KT 09/00 A3037 RMK A01 T00880000  RH  054%=      5-min Rain = 0
KSE2 141732Z 15006KT 09/M00 A3037 RMK A01 T00871004  RH  053%=      5-min Rain = 0
KSE2 141733Z 13003KT 09/M01 A3037 RMK A01 T00861006  RH  052%=      5-min Rain = 0
KSE2 141734Z 14005KT 09/M00 A3037 RMK A01 T00851004  RH  054%=      5-min Rain = 0
KSE2 141735Z 13008KT 09/00 A3037 RMK A01 T00870001  RH  055%=      5-min Rain = 0
KSE2 141736Z 14009KT 09/00 A3037 RMK A01 T00890001  RH  054%=      5-min Rain = 0
KSE2 141737Z 14009KT 09/00 A3037 RMK A01 T00910003  RH  054%=      5-min Rain = 0
KSE2 141738Z 13007KT 09/00 A3037 RMK A01 T00900001  RH  053%=      5-min Rain = 0
KSE2 141739Z 16008KT 09/00 A3037 RMK A01 T00890002  RH  054%=      5-min Rain = 0
KSE2 141740Z 16006KT 09/00 A3037 RMK A01 T00890003  RH  055%=      5-min Rain = 0
KSE2 141741Z 17006KT 09/01 A3037 RMK A01 T00910007  RH  056%=      5-min Rain = 0
KSE2 141742Z 19007KT 09/00 A3037 RMK A01 T00910003  RH  054%=      5-min Rain = 0
KSE2 141743Z 19005KT 09/00 A3037 RMK A01 T00900002  RH  054%=      5-min Rain = 0
KSE2 141744Z 20003KT 09/01 A3037 RMK A01 T00890006  RH  056%=      5-min Rain = 0
KSE2 141745Z 20003KT 09/00 A3037 RMK A01 T00900002  RH  054%=      5-min Rain = 0
KSE2 141746Z 18002KT 09/00 A3037 RMK A01 T00890003  RH  055%=      5-min Rain = 0
KSE2 141747Z 15003G9KT 09/00 A3037 RMK A01 T00900004  RH  055%=      5-min Rain = 0
KSE2 141748Z 13006KT 09/01 A3036 RMK A01 T00940009  RH  055%=      5-min Rain = 0
KSE2 141749Z 11005KT 10/02 A3036 RMK A01 T00990015  RH  056%=      5-min Rain = 0
KSE2 141750Z 15004KT 10/01 A3036 RMK A01 T00990011  RH  054%=      5-min Rain = 0
KSE2 141751Z 15006KT 10/01 A3036 RMK A01 T01000009  RH  053%=      5-min Rain = 0
KSE2 141752Z 14006KT 10/00 A3036 RMK A01 T00970003  RH  052%=      5-min Rain = 0
KSE2 141753Z 14005KT 10/00 A3036 RMK A01 T00960001  RH  052%=      5-min Rain = 0
KSE2 141754Z 15004KT 09/M00 A3036 RMK A01 T00921002  RH  052%=      5-min Rain = 0
KSE2 141755Z 10004KT 09/00 A3036 RMK A01 T00930004  RH  054%=      5-min Rain = 0
KSE2 141756Z 09003KT 09/00 A3036 RMK A01 T00940001  RH  052%=      5-min Rain = 0
KSE2 141757Z 20004KT 09/01 A3036 RMK A01 T00930005  RH  054%=      5-min Rain = 0
KSE2 141758Z 17004KT 10/01 A3036 RMK A01 T00980010  RH  054%=      5-min Rain = 0
KSE2 141759Z 15006KT 10/01 A3036 RMK A01 T01020008  RH  052%=      5-min Rain = 0
KSE2 141800Z 12007KT 10/00 A3036 RMK A01 T01030004  RH  050%=      5-min Rain = 0
KSE2 141801Z 12006KT 10/00 A3036 RMK A01 T01010004  RH  051%=      5-min Rain = 0
KSE2 141802Z 11005KT 10/M00 A3036 RMK A01 T00981001  RH  050%=      5-min Rain = 0
KSE2 141803Z 13003KT 10/00 A3036 RMK A01 T00970003  RH  052%=      5-min Rain = 0
KSE2 141804Z 13005KT 10/01 A3036 RMK A01 T01000007  RH  052%=      5-min Rain = 0
KSE2 141805Z 14008KT 11/01 A3036 RMK A01 T01050011  RH  052%=      5-min Rain = 0
KSE2 141806Z 14009KT 11/01 A3036 RMK A01 T01060005  RH  050%=      5-min Rain = 0
KSE2 141807Z 14007KT 10/00 A3036 RMK A01 T01020002  RH  050%=      5-min Rain = 0
KSE2 141808Z 13004KT 10/01 A3036 RMK A01 T01010006  RH  051%=      5-min Rain = 0
KSE2 141809Z 17004KT 10/01 A3036 RMK A01 T01030006  RH  051%=      5-min Rain = 0
KSE2 141810Z 13005KT 10/00 A3036 RMK A01 T01020003  RH  050%=      5-min Rain = 0
KSE2 141811Z 12007KT 10/01 A3036 RMK A01 T01020005  RH  051%=      5-min Rain = 0
KSE2 141812Z 10007KT 10/00 A3036 RMK A01 T01020004  RH  051%=      5-min Rain = 0
KSE2 141813Z 11008KT 10/00 A3035 RMK A01 T01020003  RH  050%=      5-min Rain = 0
KSE2 141814Z 13009KT 10/01 A3035 RMK A01 T01030007  RH  051%=      5-min Rain = 0
KSE2 141815Z 13006KT 10/M00 A3036 RMK A01 T01031001  RH  049%=      5-min Rain = 0
KSE2 141816Z 14004KT 10/00 A3035 RMK A01 T01010001  RH  050%=      5-min Rain = 0
KSE2 141817Z 14005G10KT 10/01 A3035 RMK A01 T01040006  RH  051%=      5-min Rain = 0
KSE2 141818Z 15008KT 11/01 A3035 RMK A01 T01070005  RH  049%=      5-min Rain = 0
KSE2 141819Z 16008KT 11/01 A3035 RMK A01 T01070005  RH  049%=      5-min Rain = 0
KSE2 141820Z 13009KT 11/00 A3035 RMK A01 T01070002  RH  048%=      5-min Rain = 0
KSE2 141821Z 13009KT 11/00 A3035 RMK A01 T01050000  RH  048%=      5-min Rain = 0
KSE2 141822Z 13010KT 11/00 A3035 RMK A01 T010500-0  RH  048%=      5-min Rain = 0
KSE2 141823Z 17010KT 11/01 A3035 RMK A01 T01060006  RH  050%=      5-min Rain = 0
KSE2 141824Z 17005KT 11/00 A3035 RMK A01 T01070004  RH  049%=      5-min Rain = 0
KSE2 141825Z 16006KT 11/01 A3035 RMK A01 T01090007  RH  049%=      5-min Rain = 0
KSE2 141826Z 15005KT 11/00 A3035 RMK A01 T01080003  RH  048%=      5-min Rain = 0
KSE2 141827Z 14006KT 11/00 A3035 RMK A01 T010700-0  RH  047%=      5-min Rain = 0
KSE2 141828Z 12006KT 11/00 A3035 RMK A01 T01060001  RH  048%=      5-min Rain = 0
KSE2 141829Z 12006KT 11/00 A3035 RMK A01 T01070002  RH  048%=      5-min Rain = 0
KSE2 141830Z 13005KT 11/00 A3035 RMK A01 T01070000  RH  048%=      5-min Rain = 0
KSE2 141831Z 14004KT 11/M00 A3034 RMK A01 T01061001  RH  047%=      5-min Rain = 0
KSE2 141832Z 12006G12KT 11/00 A3034 RMK A01 T01060001  RH  048%=      5-min Rain = 0
KSE2 141833Z 12011KT 11/00 A3034 RMK A01 T01100003  RH  048%=      5-min Rain = 0
KSE2 141834Z 14011KT 11/00 A3034 RMK A01 T01120004  RH  047%=      5-min Rain = 0
KSE2 141835Z 14010KT 11/00 A3034 RMK A01 T01130001  RH  046%=      5-min Rain = 0
KSE2 141836Z 17009KT 11/00 A3034 RMK A01 T01120000  RH  046%=      5-min Rain = 0
KSE2 141837Z 18006KT 11/M00 A3034 RMK A01 T01121003  RH  045%=      5-min Rain = 0
KSE2 141838Z 16008KT 11/00 A3034 RMK A01 T01110001  RH  046%=      5-min Rain = 0
KSE2 141839Z 17006KT 11/M00 A3034 RMK A01 T01141002  RH  045%=      5-min Rain = 0
KSE2 141840Z 15005KT 11/M01 A3034 RMK A01 T01121007  RH  044%=      5-min Rain = 0
KSE2 141841Z 15004KT 11/M00 A3034 RMK A01 T01121001  RH  046%=      5-min Rain = 0
KSE2 141842Z 11007KT 12/01 A3034 RMK A01 T01150008  RH  048%=      5-min Rain = 0
KSE2 141843Z 14008KT 12/01 A3034 RMK A01 T01160005  RH  046%=      5-min Rain = 0
KSE2 141844Z 14008KT 12/00 A3034 RMK A01 T01160001  RH  045%=      5-min Rain = 0
KSE2 141845Z 16006KT 12/00 A3034 RMK A01 T01170002  RH  045%=      5-min Rain = 0
KSE2 141846Z 18008KT 12/M00 A3034 RMK A01 T01221003  RH  042%=      5-min Rain = 0
KSE2 141847Z 19008KT 12/M01 A3034 RMK A01 T01201011  RH  040%=      5-min Rain = 0
KSE2 141848Z 16008KT 12/M00 A3034 RMK A01 T01181004  RH  043%=      5-min Rain = 0
KSE2 141849Z 12009KT 12/00 A3033 RMK A01 T01190004  RH  045%=      5-min Rain = 0
KSE2 141850Z 12008KT 12/01 A3033 RMK A01 T01200005  RH  045%=      5-min Rain = 0
KSE2 141851Z 13007KT 12/M00 A3033 RMK A01 T01181001  RH  044%=      5-min Rain = 0
KSE2 141852Z 16008KT 12/M00 A3033 RMK A01 T01171004  RH  043%=      5-min Rain = 0
KSE2 141853Z 16007KT 12/M01 A3033 RMK A01 T01161011  RH  041%=      5-min Rain = 0
KSE2 141854Z 15009KT 12/M01 A3033 RMK A01 T01181006  RH  042%=      5-min Rain = 0
KSE2 141855Z 15008KT 12/M01 A3033 RMK A01 T01181008  RH  042%=      5-min Rain = 0
KSE2 141856Z 17008G13KT 12/M00 A3033 RMK A01 T01181004  RH  043%=      5-min Rain = 0
KSE2 141857Z 16008KT 12/M00 A3033 RMK A01 T01201004  RH  042%=      5-min Rain = 0
KSE2 141858Z 17009KT 12/M01 A3033 RMK A01 T01201009  RH  041%=      5-min Rain = 0
KSE2 141859Z 14007KT 12/M01 A3033 RMK A01 T01191006  RH  042%=      5-min Rain = 0
KSE2 141900Z 15008KT 12/M00 A3033 RMK A01 T01191004  RH  043%=      5-min Rain = 0
KSE2 141901Z 13005KT 12/M01 A3032 RMK A01 T01181007  RH  042%=      5-min Rain = 0
KSE2 141902Z 18004KT 12/M01 A3032 RMK A01 T01161005  RH  043%=      5-min Rain = 0
KSE2 141903Z 19004KT 12/M00 A3032 RMK A01 T01181002  RH  044%=      5-min Rain = 0
KSE2 141904Z 15004KT 12/M01 A3032 RMK A01 T01201005  RH  042%=      5-min Rain = 0
KSE2 141905Z 14008KT 12/M01 A3032 RMK A01 T01201005  RH  042%=      5-min Rain = 0
KSE2 141906Z 14009KT 12/M00 A3032 RMK A01 T01221003  RH  042%=      5-min Rain = 0
KSE2 141907Z 13009KT 12/M00 A3032 RMK A01 T01221004  RH  042%=      5-min Rain = 0
KSE2 141908Z 14011G16KT 12/M01 A3032 RMK A01 T01231008  RH  040%=      5-min Rain = 0
KSE2 141909Z 16012KT 12/M01 A3032 RMK A01 T01231011  RH  039%=      5-min Rain = 0
KSE2 141910Z 16011KT 12/M01 A3032 RMK A01 T01231014  RH  039%=      5-min Rain = 0
KSE2 141911Z 16012KT 12/M02 A3032 RMK A01 T01231016  RH  038%=      5-min Rain = 0
KSE2 141912Z 16009KT 12/M02 A3031 RMK A01 T01231016  RH  038%=      5-min Rain = 0
KSE2 141913Z 16010KT 12/M01 A3031 RMK A01 T01221013  RH  039%=      5-min Rain = 0
KSE2 141914Z 16012KT 12/M01 A3031 RMK A01 T01231010  RH  040%=      5-min Rain = 0
KSE2 141915Z 16010KT 12/M01 A3031 RMK A01 T01231011  RH  040%=      5-min Rain = 0
KSE2 141916Z 14005KT 12/M01 A3031 RMK A01 T01221009  RH  040%=      5-min Rain = 0
KSE2 141917Z 14007KT 13/M01 A3031 RMK A01 T01251010  RH  039%=      5-min Rain = 0
KSE2 141918Z 15006KT 13/M01 A3031 RMK A01 T01271009  RH  039%=      5-min Rain = 0
KSE2 141919Z 17009KT 13/M01 A3031 RMK A01 T01281005  RH  040%=      5-min Rain = 0
KSE2 141920Z 19008KT 13/M01 A3031 RMK A01 T01301011  RH  038%=      5-min Rain = 0
KSE2 141921Z 17010G15KT 13/M01 A3031 RMK A01 T01311012  RH  037%=      5-min Rain = 0
KSE2 141922Z 17011KT 13/M01 A3031 RMK A01 T01281011  RH  038%=      5-min Rain = 0
KSE2 141923Z 18007KT 13/M01 A3031 RMK A01 T01271007  RH  040%=      5-min Rain = 0
KSE2 141924Z 13010KT 13/M01 A3031 RMK A01 T01271009  RH  039%=      5-min Rain = 0
KSE2 141925Z 15008KT 13/M01 A3031 RMK A01 T01251009  RH  039%=      5-min Rain = 0
KSE2 141926Z 13010KT 12/M01 A3031 RMK A01 T01241007  RH  040%=      5-min Rain = 0
KSE2 141927Z 13010KT 13/M01 A303 RMK A01 T01251007  RH  040%=      5-min Rain = 0
KSE2 141928Z 14007KT 13/M01 A303 RMK A01 T01251005  RH  041%=      5-min Rain = 0
KSE2 141929Z 17009G14KT 13/M00 A303 RMK A01 T01271002  RH  041%=      5-min Rain = 0
KSE2 141930Z 17009KT 13/M00 A303 RMK A01 T01311004  RH  039%=      5-min Rain = 0
KSE2 141931Z 18010KT 13/M00 A303 RMK A01 T01321004  RH  039%=      5-min Rain = 0
KSE2 141932Z 18008KT 13/M00 A303 RMK A01 T01331003  RH  039%=      5-min Rain = 0
KSE2 141933Z 17009KT 13/M01 A303 RMK A01 T01331008  RH  038%=      5-min Rain = 0
KSE2 141934Z 16005KT 13/M01 A303 RMK A01 T01311006  RH  039%=      5-min Rain = 0
KSE2 141935Z 16006KT 13/M01 A303 RMK A01 T01331009  RH  038%=      5-min Rain = 0
KSE2 141936Z 17008KT 13/M01 A303 RMK A01 T01321012  RH  037%=      5-min Rain = 0
KSE2 141937Z 17008KT 13/M01 A303 RMK A01 T01301012  RH  037%=      5-min Rain = 0
KSE2 141938Z 19010KT 13/M01 A303 RMK A01 T01311008  RH  038%=      5-min Rain = 0
KSE2 141939Z 16009KT 13/M01 A303 RMK A01 T01291012  RH  038%=      5-min Rain = 0
KSE2 141940Z 18008KT 13/M01 A303 RMK A01 T01301010  RH  038%=      5-min Rain = 0
KSE2 141941Z 16007KT 13/M01 A303 RMK A01 T01311012  RH  037%=      5-min Rain = 0
KSE2 141942Z 13010KT 13/M01 A303 RMK A01 T01321009  RH  038%=      5-min Rain = 0
KSE2 141943Z 17008KT 13/M01 A3029 RMK A01 T01311012  RH  037%=      5-min Rain = 0
KSE2 141944Z 18007KT 13/M01 A3029 RMK A01 T01311007  RH  039%=      5-min Rain = 0
KSE2 141945Z 14009KT 13/M01 A3029 RMK A01 T01341014  RH  036%=      5-min Rain = 0
KSE2 141946Z 14011KT 13/M02 A3029 RMK A01 T01331015  RH  036%=      5-min Rain = 0
KSE2 141947Z 15009KT 13/M01 A3029 RMK A01 T01321013  RH  037%=      5-min Rain = 0
KSE2 141948Z 13011KT 13/M02 A3029 RMK A01 T01321016  RH  036%=      5-min Rain = 0
KSE2 141949Z 14008KT 13/M02 A3029 RMK A01 T01291019  RH  036%=      5-min Rain = 0
KSE2 141950Z 14009KT 13/M02 A3029 RMK A01 T01281017  RH  037%=      5-min Rain = 0
KSE2 141951Z 13009KT 13/M01 A3029 RMK A01 T01291012  RH  038%=      5-min Rain = 0
KSE2 141952Z 12009KT 13/M01 A3029 RMK A01 T01301010  RH  038%=      5-min Rain = 0
KSE2 141953Z 12009KT 13/M01 A3029 RMK A01 T01321007  RH  038%=      5-min Rain = 0
KSE2 141954Z 16010KT 13/M01 A3029 RMK A01 T01341007  RH  038%=      5-min Rain = 0
KSE2 141955Z 16011KT 13/M01 A3029 RMK A01 T01331014  RH  036%=      5-min Rain = 0
KSE2 141956Z 14010KT 13/M01 A3029 RMK A01 T01321012  RH  037%=      5-min Rain = 0
KSE2 141957Z 13011KT 14/M01 A3029 RMK A01 T01351010  RH  037%=      5-min Rain = 0
KSE2 141958Z 14010KT 14/M01 A3029 RMK A01 T01351011  RH  036%=      5-min Rain = 0
KSE2 141959Z 13008KT 13/M02 A3029 RMK A01 T01341018  RH  035%=      5-min Rain = 0
KSE2 142000Z 12009KT 13/M02 A3029 RMK A01 T01331017  RH  036%=      5-min Rain = 0
KSE2 142001Z 13014KT 13/M01 A3028 RMK A01 T01341012  RH  036%=      5-min Rain = 0
KSE2 142002Z 13011KT 13/M02 A3029 RMK A01 T01321016  RH  036%=      5-min Rain = 0
KSE2 142003Z 15011KT 13/M01 A3028 RMK A01 T01311011  RH  037%=      5-min Rain = 0
KSE2 142004Z 14011KT 13/M01 A3028 RMK A01 T01311009  RH  038%=      5-min Rain = 0
KSE2 142005Z 15009KT 13/M01 A3029 RMK A01 T01321006  RH  039%=      5-min Rain = 0
KSE2 142006Z 14012KT 13/M02 A3029 RMK A01 T01331018  RH  035%=      5-min Rain = 0
KSE2 142007Z 15009KT 13/M02 A3029 RMK A01 T01321016  RH  036%=      5-min Rain = 0
KSE2 142008Z 13012KT 13/M02 A3029 RMK A01 T01331016  RH  036%=      5-min Rain = 0
KSE2 142009Z 14008KT 13/M02 A3029 RMK A01 T01321016  RH  036%=      5-min Rain = 0
KSE2 142010Z 15004KT 13/M02 A3028 RMK A01 T01301016  RH  036%=      5-min Rain = 0
KSE2 142011Z 15006KT 13/M01 A3028 RMK A01 T01321010  RH  037%=      5-min Rain = 0
KSE2 142012Z 18009KT 14/M00 A3028 RMK A01 T01371002  RH  039%=      5-min Rain = 0
KSE2 142013Z 17011KT 14/M00 A3028 RMK A01 T01391003  RH  038%=      5-min Rain = 0
KSE2 142014Z 14010KT 14/M01 A3028 RMK A01 T01361008  RH  037%=      5-min Rain = 0
KSE2 142015Z 15009KT 13/M01 A3028 RMK A01 T01331011  RH  037%=      5-min Rain = 0
KSE2 142016Z 15009KT 13/M01 A3028 RMK A01 T01301013  RH  037%=      5-min Rain = 0
KSE2 142017Z 16010KT 13/M01 A3028 RMK A01 T01301007  RH  039%=      5-min Rain = 0
KSE2 142018Z 17010KT 13/M01 A3028 RMK A01 T01311007  RH  038%=      5-min Rain = 0
KSE2 142019Z 15012KT 13/M01 A3028 RMK A01 T01321008  RH  038%=      5-min Rain = 0
KSE2 142020Z 16011KT 13/M01 A3028 RMK A01 T01311008  RH  038%=      5-min Rain = 0
KSE2 142021Z 16010KT 13/M01 A3028 RMK A01 T01331007  RH  038%=      5-min Rain = 0
KSE2 142022Z 15011KT 13/M01 A3028 RMK A01 T01331009  RH  037%=      5-min Rain = 0
KSE2 142023Z 13011KT 13/M01 A3028 RMK A01 T01341012  RH  037%=      5-min Rain = 0
KSE2 142024Z 14010KT 13/M01 A3028 RMK A01 T01331011  RH  037%=      5-min Rain = 0
KSE2 142025Z 13011KT 13/M01 A3028 RMK A01 T01341014  RH  036%=      5-min Rain = 0
KSE2 142026Z 14009KT 13/M01 A3028 RMK A01 T01321011  RH  037%=      5-min Rain = 0
KSE2 142027Z 14011KT 13/M02 A3028 RMK A01 T01341015  RH  036%=      5-min Rain = 0
KSE2 142028Z 14010KT 13/M02 A3028 RMK A01 T01331018  RH  035%=      5-min Rain = 0
KSE2 142029Z 13009KT 13/M02 A3028 RMK A01 T01321016  RH  036%=      5-min Rain = 0
KSE2 142030Z 14010G15KT 13/M02 A3027 RMK A01 T01331018  RH  035%=      5-min Rain = 0
KSE2 142031Z 14011KT 13/M02 A3027 RMK A01 T01331024  RH  033%=      5-min Rain = 0
KSE2 142032Z 14012KT 13/M03 A3027 RMK A01 T01331026  RH  033%=      5-min Rain = 0
KSE2 142033Z 14012KT 13/M03 A3027 RMK A01 T01321026  RH  033%=      5-min Rain = 0
KSE2 142034Z 14010KT 13/M02 A3027 RMK A01 T01321022  RH  034%=      5-min Rain = 0
KSE2 142035Z 13010KT 13/M02 A3027 RMK A01 T01331018  RH  035%=      5-min Rain = 0
KSE2 142036Z 13010KT 13/M01 A3027 RMK A01 T01341014  RH  036%=      5-min Rain = 0
KSE2 142037Z 12012G17KT 14/M01 A3027 RMK A01 T01351010  RH  037%=      5-min Rain = 0
KSE2 142038Z 14013KT 14/M01 A3027 RMK A01 T01361007  RH  037%=      5-min Rain = 0
KSE2 142039Z 15012KT 14/M01 A3027 RMK A01 T01361006  RH  038%=      5-min Rain = 0
KSE2 142040Z 16008KT 14/M01 A3027 RMK A01 T01361007  RH  037%=      5-min Rain = 0
KSE2 142041Z 15009KT 14/M01 A3027 RMK A01 T01361009  RH  037%=      5-min Rain = 0
KSE2 142042Z 14010KT 14/M01 A3027 RMK A01 T01351013  RH  036%=      5-min Rain = 0
KSE2 142043Z 13009KT 14/M01 A3027 RMK A01 T01361012  RH  036%=      5-min Rain = 0
KSE2 142044Z 15009KT 14/M02 A3027 RMK A01 T01361022  RH  034%=      5-min Rain = 0
KSE2 142045Z 15007KT 13/M02 A3027 RMK A01 T01331024  RH  033%=      5-min Rain = 0
KSE2 142046Z 13011KT 13/M02 A3027 RMK A01 T01341018  RH  035%=      5-min Rain = 0
KSE2 142047Z 12013KT 14/M02 A3027 RMK A01 T01361017  RH  035%=      5-min Rain = 0
KSE2 142048Z 13012KT 14/M02 A3027 RMK A01 T01351021  RH  034%=      5-min Rain = 0
KSE2 142049Z 11010KT 13/M02 A3027 RMK A01 T01331019  RH  035%=      5-min Rain = 0
KSE2 142050Z 11007KT 13/M02 A3027 RMK A01 T01331019  RH  035%=      5-min Rain = 0
KSE2 142051Z 12007KT 14/M01 A3027 RMK A01 T01371006  RH  037%=      5-min Rain = 0
KSE2 142052Z 13009KT 14/M02 A3027 RMK A01 T01391018  RH  034%=      5-min Rain = 0
KSE2 142053Z 15009KT 14/M01 A3027 RMK A01 T01371014  RH  035%=      5-min Rain = 0
KSE2 142054Z 16009KT 14/M02 A3027 RMK A01 T01371018  RH  034%=      5-min Rain = 0
KSE2 142055Z 15009KT 14/M02 A3027 RMK A01 T01351022  RH  033%=      5-min Rain = 0
KSE2 142056Z 13007KT 13/M03 A3027 RMK A01 T01341025  RH  033%=      5-min Rain = 0
KSE2 142057Z 17009KT 13/M02 A3027 RMK A01 T01341019  RH  035%=      5-min Rain = 0
KSE2 142058Z 15007KT 14/M02 A3027 RMK A01 T01371022  RH  033%=      5-min Rain = 0
KSE2 142059Z 16007KT 14/M02 A3027 RMK A01 T01391018  RH  034%=      5-min Rain = 0
KSE2 142100Z 13009KT 14/M02 A3027 RMK A01 T01421015  RH  034%=      5-min Rain = 0
KSE2 142101Z 13011KT 14/M02 A3027 RMK A01 T01411017  RH  034%=      5-min Rain = 0
KSE2 142102Z 14010KT 14/M02 A3027 RMK A01 T01391017  RH  034%=      5-min Rain = 0
KSE2 142103Z 16007KT 14/M02 A3027 RMK A01 T01391015  RH  034%=      5-min Rain = 0
KSE2 142104Z 14008KT 14/M01 A3027 RMK A01 T01401013  RH  035%=      5-min Rain = 0
KSE2 142105Z 16008KT 14/M02 A3026 RMK A01 T01401015  RH  034%=      5-min Rain = 0
KSE2 142106Z 13010KT 14/M02 A3026 RMK A01 T01401017  RH  034%=      5-min Rain = 0
KSE2 142107Z 13010KT 14/M02 A3026 RMK A01 T01401015  RH  034%=      5-min Rain = 0
KSE2 142108Z 12009KT 14/M01 A3026 RMK A01 T01391014  RH  035%=      5-min Rain = 0
KSE2 142109Z 14010KT 14/M01 A3026 RMK A01 T01391014  RH  035%=      5-min Rain = 0
KSE2 142110Z 13010KT 14/M01 A3026 RMK A01 T01381012  RH  035%=      5-min Rain = 0
KSE2 142111Z 13007KT 14/M01 A3026 RMK A01 T01381011  RH  036%=      5-min Rain = 0
KSE2 142112Z 13008KT 14/M01 A3026 RMK A01 T01391006  RH  037%=      5-min Rain = 0
KSE2 142113Z 12010KT 14/M01 A3026 RMK A01 T01401010  RH  036%=      5-min Rain = 0
KSE2 142114Z 13009KT 14/M01 A3026 RMK A01 T01401009  RH  036%=      5-min Rain = 0
KSE2 142115Z 16010KT 14/M00 A3026 RMK A01 T01411004  RH  037%=      5-min Rain = 0
KSE2 142116Z 18007KT 14/M01 A3026 RMK A01 T01421011  RH  035%=      5-min Rain = 0
KSE2 142117Z 16006KT 14/M01 A3026 RMK A01 T01421009  RH  035%=      5-min Rain = 0
KSE2 142118Z 15007KT 14/M01 A3026 RMK A01 T01431007  RH  036%=      5-min Rain = 0
KSE2 142119Z 16008KT 14/M01 A3026 RMK A01 T01421008  RH  035%=      5-min Rain = 0
KSE2 142120Z 15008KT 14/M01 A3026 RMK A01 T01421007  RH  036%=      5-min Rain = 0
KSE2 142121Z 12009KT 14/M01 A3026 RMK A01 T01421006  RH  036%=      5-min Rain = 0
KSE2 142122Z 14008KT 14/M01 A3026 RMK A01 T01421009  RH  036%=      5-min Rain = 0
KSE2 142123Z 13007KT 14/M01 A3026 RMK A01 T01421008  RH  036%=      5-min Rain = 0
KSE2 142124Z 14010G15KT 14/M01 A3026 RMK A01 T01421006  RH  036%=      5-min Rain = 0
KSE2 142125Z 14010KT 14/M02 A3026 RMK A01 T01431017  RH  033%=      5-min Rain = 0
KSE2 142126Z 15010KT 14/M01 A3026 RMK A01 T01421012  RH  035%=      5-min Rain = 0
KSE2 142127Z 15011KT 14/M01 A3026 RMK A01 T01431014  RH  034%=      5-min Rain = 0
KSE2 142128Z 17008KT 14/M02 A3026 RMK A01 T01431015  RH  034%=      5-min Rain = 0
KSE2 142129Z 16009KT 14/M01 A3026 RMK A01 T01431013  RH  034%=      5-min Rain = 0
KSE2 142130Z 16007KT 14/M02 A3026 RMK A01 T01421022  RH  032%=      5-min Rain = 0
KSE2 142131Z 16006G11KT 14/M02 A3026 RMK A01 T01401018  RH  034%=      5-min Rain = 0
KSE2 142132Z 17009KT 14/M02 A3026 RMK A01 T01421018  RH  033%=      5-min Rain = 0
KSE2 142133Z 16007KT 14/M02 A3026 RMK A01 T01401019  RH  033%=      5-min Rain = 0
KSE2 142134Z 16006KT 14/M02 A3026 RMK A01 T01391018  RH  034%=      5-min Rain = 0
KSE2 142135Z 14002KT 14/M02 A3026 RMK A01 T01381017  RH  034%=      5-min Rain = 0
KSE2 142136Z 16006KT 14/M01 A3026 RMK A01 T01411008  RH  036%=      5-min Rain = 0
KSE2 142137Z 19004KT 14/M01 A3026 RMK A01 T01421014  RH  034%=      5-min Rain = 0
KSE2 142138Z 16008KT 14/M01 A3026 RMK A01 T01431008  RH  036%=      5-min Rain = 0
KSE2 142139Z 10009KT 15/M01 A3026 RMK A01 T01451006  RH  036%=      5-min Rain = 0
KSE2 142140Z 11007KT 14/M00 A3026 RMK A01 T01441004  RH  036%=      5-min Rain = 0
KSE2 142141Z 14008KT 14/M00 A3026 RMK A01 T01441004  RH  036%=      5-min Rain = 0
KSE2 142142Z 18008KT 15/00 A3025 RMK A01 T014600-0  RH  037%=      5-min Rain = 0
KSE2 142143Z 17008G14KT 15/M01 A3025 RMK A01 T01481005  RH  035%=      5-min Rain = 0
KSE2 142144Z 15009KT 15/M01 A3025 RMK A01 T01471006  RH  035%=      5-min Rain = 0
KSE2 142145Z 14008KT 15/M01 A3025 RMK A01 T01461006  RH  035%=      5-min Rain = 0
KSE2 142146Z 14009KT 15/M01 A3025 RMK A01 T01451008  RH  035%=      5-min Rain = 0
KSE2 142147Z 14012KT 15/M01 A3025 RMK A01 T01451011  RH  034%=      5-min Rain = 0
KSE2 142148Z 13012KT 14/M01 A3025 RMK A01 T01441013  RH  034%=      5-min Rain = 0
KSE2 142149Z 14012KT 14/M01 A3025 RMK A01 T01441011  RH  034%=      5-min Rain = 0
KSE2 142150Z 13012KT 14/M01 A3025 RMK A01 T01431013  RH  034%=      5-min Rain = 0
KSE2 142151Z 13010KT 14/M01 A3025 RMK A01 T01411013  RH  035%=      5-min Rain = 0
KSE2 142152Z 13008KT 14/M01 A3025 RMK A01 T01411011  RH  035%=      5-min Rain = 0
KSE2 142153Z 15007KT 14/M00 A3025 RMK A01 T01431004  RH  037%=      5-min Rain = 0
KSE2 142154Z 15008KT 15/M01 A3025 RMK A01 T01451009  RH  035%=      5-min Rain = 0
KSE2 142155Z 14010KT 14/M01 A3025 RMK A01 T01441011  RH  034%=      5-min Rain = 0
KSE2 142156Z 15011KT 14/M01 A3025 RMK A01 T01431009  RH  035%=      5-min Rain = 0
KSE2 142157Z 13009KT 14/M01 A3025 RMK A01 T01421013  RH  034%=      5-min Rain = 0
KSE2 142158Z 15010KT 14/M01 A3025 RMK A01 T01421009  RH  035%=      5-min Rain = 0
KSE2 142159Z 18009KT 14/M01 A3025 RMK A01 T01441011  RH  034%=      5-min Rain = 0
KSE2 142200Z 17011KT 15/M01 A3025 RMK A01 T01451011  RH  034%=      5-min Rain = 0
KSE2 142201Z 19010KT 15/M02 A3025 RMK A01 T01461017  RH  033%=      5-min Rain = 0
KSE2 142202Z 19006KT 14/M01 A3025 RMK A01 T01441014  RH  034%=      5-min Rain = 0
KSE2 142203Z 16008KT 14/M01 A3025 RMK A01 T01441013  RH  034%=      5-min Rain = 0
KSE2 142204Z 14010KT 15/M01 A3025 RMK A01 T01451012  RH  034%=      5-min Rain = 0
KSE2 142205Z 13011KT 14/M01 A3025 RMK A01 T01441012  RH  034%=      5-min Rain = 0
KSE2 142206Z 14011KT 14/M01 A3025 RMK A01 T01441013  RH  034%=      5-min Rain = 0
KSE2 142207Z 13011KT 14/M01 A3025 RMK A01 T01431012  RH  034%=      5-min Rain = 0
KSE2 142208Z 13009KT 14/M01 A3025 RMK A01 T01421012  RH  035%=      5-min Rain = 0
KSE2 142209Z 13007KT 14/M01 A3025 RMK A01 T01421012  RH  034%=      5-min Rain = 0
KSE2 142210Z 14009KT 14/M01 A3025 RMK A01 T01421008  RH  036%=      5-min Rain = 0
KSE2 142211Z 13010KT 14/M01 A3025 RMK A01 T01431009  RH  035%=      5-min Rain = 0
KSE2 142212Z 15008KT 14/M01 A3025 RMK A01 T01441007  RH  036%=      5-min Rain = 0
KSE2 142213Z 15011KT 14/M01 A3025 RMK A01 T01441011  RH  034%=      5-min Rain = 0
KSE2 142214Z 14008KT 14/M01 A3025 RMK A01 T01431012  RH  034%=      5-min Rain = 0
KSE2 142215Z 16009KT 14/M01 A3025 RMK A01 T01421014  RH  034%=      5-min Rain = 0
KSE2 142216Z 15010KT 14/M01 A3025 RMK A01 T01411013  RH  034%=      5-min Rain = 0
KSE2 142217Z 15012KT 14/M01 A3025 RMK A01 T01411010  RH  035%=      5-min Rain = 0
KSE2 142218Z 14010KT 14/M01 A3025 RMK A01 T01411010  RH  035%=      5-min Rain = 0
KSE2 142219Z 12010KT 14/M01 A3025 RMK A01 T01421009  RH  035%=      5-min Rain = 0
KSE2 142220Z 13010KT 14/M01 A3025 RMK A01 T01431006  RH  036%=      5-min Rain = 0
KSE2 142221Z 14010KT 14/M01 A3025 RMK A01 T01431008  RH  035%=      5-min Rain = 0
KSE2 142222Z 14009KT 14/M01 A3025 RMK A01 T01431008  RH  035%=      5-min Rain = 0
KSE2 142223Z 16008KT 14/M01 A3025 RMK A01 T01431011  RH  035%=      5-min Rain = 0
KSE2 142224Z 15008KT 14/M01 A3025 RMK A01 T01431009  RH  035%=      5-min Rain = 0
KSE2 142225Z 14006KT 14/M01 A3024 RMK A01 T01431009  RH  035%=      5-min Rain = 0
KSE2 142226Z 14011KT 14/M01 A3024 RMK A01 T01431007  RH  036%=      5-min Rain = 0
KSE2 142227Z 14012KT 14/M01 A3024 RMK A01 T01431008  RH  035%=      5-min Rain = 0
KSE2 142228Z 13010KT 14/M01 A3024 RMK A01 T01411007  RH  036%=      5-min Rain = 0
KSE2 142229Z 13011KT 14/M01 A3024 RMK A01 T01401007  RH  036%=      5-min Rain = 0
KSE2 142230Z 12008KT 14/M00 A3024 RMK A01 T01401003  RH  038%=      5-min Rain = 0
KSE2 142231Z 12010KT 14/00 A3024 RMK A01 T01420001  RH  038%=      5-min Rain = 0
KSE2 142232Z 13010KT 14/M00 A3024 RMK A01 T01421002  RH  037%=      5-min Rain = 0
KSE2 142233Z 12009KT 14/M00 A3024 RMK A01 T01411002  RH  037%=      5-min Rain = 0
KSE2 142234Z 12009KT 14/M00 A3024 RMK A01 T01411003  RH  037%=      5-min Rain = 0
KSE2 142235Z 13010KT 14/00 A3024 RMK A01 T014100-0  RH  038%=      5-min Rain = 0
KSE2 142236Z 15010KT 14/M00 A3024 RMK A01 T01411003  RH  037%=      5-min Rain = 0
KSE2 142237Z 14009KT 14/M00 A3024 RMK A01 T01421004  RH  037%=      5-min Rain = 0
KSE2 142238Z 14009KT 14/M00 A3024 RMK A01 T01421004  RH  037%=      5-min Rain = 0
KSE2 142239Z 14009KT 14/M00 A3024 RMK A01 T01411002  RH  037%=      5-min Rain = 0
KSE2 142240Z 13012KT 14/M00 A3024 RMK A01 T01411002  RH  038%=      5-min Rain = 0
KSE2 142241Z 14010KT 14/M00 A3024 RMK A01 T01401003  RH  037%=      5-min Rain = 0
KSE2 142242Z 12008KT 14/00 A3024 RMK A01 T01400001  RH  039%=      5-min Rain = 0
KSE2 142243Z 11010KT 14/00 A3024 RMK A01 T01420004  RH  039%=      5-min Rain = 0
KSE2 142244Z 12007KT 14/M00 A3024 RMK A01 T01411003  RH  037%=      5-min Rain = 0
KSE2 142245Z 11008G13KT 14/00 A3024 RMK A01 T01400002  RH  039%=      5-min Rain = 0
KSE2 142246Z 14009KT 14/M00 A3024 RMK A01 T01411001  RH  038%=      5-min Rain = 0
KSE2 142247Z 14010KT 14/M00 A3024 RMK A01 T01411002  RH  038%=      5-min Rain = 0
KSE2 142248Z 13009KT 14/M00 A3024 RMK A01 T01411001  RH  038%=      5-min Rain = 0
KSE2 142249Z 12008KT 14/00 A3024 RMK A01 T01410002  RH  039%=      5-min Rain = 0
KSE2 142250Z 12010KT 14/M00 A3024 RMK A01 T01421001  RH  038%=      5-min Rain = 0
KSE2 142251Z 14009KT 14/M00 A3024 RMK A01 T01411002  RH  037%=      5-min Rain = 0
KSE2 142252Z 15010KT 14/M00 A3024 RMK A01 T01411002  RH  037%=      5-min Rain = 0
KSE2 142253Z 15008KT 14/M01 A3024 RMK A01 T01401005  RH  037%=      5-min Rain = 0
KSE2 142254Z 15007KT 14/M00 A3024 RMK A01 T01391001  RH  038%=      5-min Rain = 0
KSE2 142255Z 13008KT 14/M00 A3024 RMK A01 T01391003  RH  037%=      5-min Rain = 0
KSE2 142256Z 15008KT 14/M00 A3024 RMK A01 T01391001  RH  038%=      5-min Rain = 0
KSE2 142257Z 14008KT 14/M01 A3024 RMK A01 T01391005  RH  037%=      5-min Rain = 0
KSE2 142258Z 14008KT 14/M01 A3024 RMK A01 T01381006  RH  037%=      5-min Rain = 0
KSE2 142259Z 14008KT 14/M00 A3024 RMK A01 T01381004  RH  038%=      5-min Rain = 0
KSE2 142300Z 12011G16KT 14/M00 A3024 RMK A01 T01381002  RH  038%=      5-min Rain = 0
KSE2 142301Z 13010KT 14/M00 A3024 RMK A01 T01391002  RH  038%=      5-min Rain = 0
KSE2 142302Z 12009G14KT 14/00 A3024 RMK A01 T013800-0  RH  039%=      5-min Rain = 0
KSE2 142303Z 13012KT 14/M00 A3024 RMK A01 T01391003  RH  038%=      5-min Rain = 0
KSE2 142304Z 13010KT 14/M00 A3024 RMK A01 T01371003  RH  038%=      5-min Rain = 0
KSE2 142305Z 14008KT 14/M00 A3024 RMK A01 T01381001  RH  039%=      5-min Rain = 0
KSE2 142306Z 16009KT 14/M00 A3024 RMK A01 T01381001  RH  038%=      5-min Rain = 0
KSE2 142307Z 16007KT 14/M00 A3024 RMK A01 T01391001  RH  038%=      5-min Rain = 0
KSE2 142308Z 16006KT 14/M00 A3024 RMK A01 T01381001  RH  038%=      5-min Rain = 0
KSE2 142309Z 14007KT 14/00 A3024 RMK A01 T013800-0  RH  039%=      5-min Rain = 0
KSE2 142310Z 12008KT 14/M00 A3024 RMK A01 T01381001  RH  038%=      5-min Rain = 0
KSE2 142311Z 13008G13KT 14/M00 A3024 RMK A01 T01381001  RH  038%=      5-min Rain = 0
KSE2 142312Z 13010KT 14/M00 A3024 RMK A01 T01391003  RH  038%=      5-min Rain = 0
KSE2 142313Z 15010KT 14/M01 A3024 RMK A01 T01381006  RH  037%=      5-min Rain = 0
KSE2 142314Z 13009KT 14/M01 A3024 RMK A01 T01371006  RH  037%=      5-min Rain = 0
KSE2 142315Z 13009KT 14/M01 A3024 RMK A01 T01361007  RH  037%=      5-min Rain = 0
KSE2 142316Z 11010KT 14/M01 A3024 RMK A01 T01361008  RH  037%=      5-min Rain = 0
KSE2 142317Z 11009KT 14/M01 A3024 RMK A01 T01351009  RH  037%=      5-min Rain = 0
KSE2 142318Z 13009KT 14/M01 A3024 RMK A01 T01351011  RH  037%=      5-min Rain = 0
KSE2 142319Z 13010KT 14/M01 A3024 RMK A01 T01351010  RH  037%=      5-min Rain = 0
KSE2 142320Z 13010KT 13/M01 A3025 RMK A01 T01341010  RH  037%=      5-min Rain = 0
KSE2 142321Z 13011KT 13/M01 A3024 RMK A01 T01341009  RH  037%=      5-min Rain = 0
KSE2 142322Z 13010G15KT 13/M01 A3025 RMK A01 T01341005  RH  038%=      5-min Rain = 0
KSE2 142323Z 13011KT 13/M01 A3025 RMK A01 T01341005  RH  038%=      5-min Rain = 0
KSE2 142324Z 13008KT 13/M01 A3025 RMK A01 T01341006  RH  038%=      5-min Rain = 0
KSE2 142325Z 14012KT 13/M01 A3025 RMK A01 T01341006  RH  038%=      5-min Rain = 0
KSE2 142326Z 14011KT 13/M01 A3025 RMK A01 T01331008  RH  038%=      5-min Rain = 0
KSE2 142327Z 13012KT 13/M01 A3025 RMK A01 T01331007  RH  038%=      5-min Rain = 0
KSE2 142328Z 12011KT 13/M01 A3025 RMK A01 T01321007  RH  038%=      5-min Rain = 0
KSE2 142329Z 13010KT 13/M01 A3025 RMK A01 T01321009  RH  038%=      5-min Rain = 0
KSE2 142330Z 13010KT 13/M01 A3025 RMK A01 T01321008  RH  038%=      5-min Rain = 0
KSE2 142331Z 13008KT 13/M01 A3025 RMK A01 T01321009  RH  038%=      5-min Rain = 0
KSE2 142332Z 13009KT 13/M01 A3025 RMK A01 T01321008  RH  038%=      5-min Rain = 0
KSE2 142333Z 13009KT 13/M01 A3024 RMK A01 T01321009  RH  038%=      5-min Rain = 0
KSE2 142334Z 14009KT 13/M01 A3024 RMK A01 T01321010  RH  038%=      5-min Rain = 0
KSE2 142335Z 13008KT 13/M01 A3025 RMK A01 T01311006  RH  039%=      5-min Rain = 0
KSE2 142336Z 14008KT 13/M01 A3025 RMK A01 T01321008  RH  038%=      5-min Rain = 0
KSE2 142337Z 14010KT 13/M01 A3025 RMK A01 T01311007  RH  038%=      5-min Rain = 0
KSE2 142338Z 14009KT 13/M01 A3025 RMK A01 T01311009  RH  038%=      5-min Rain = 0
KSE2 142339Z 14008KT 13/M01 A3025 RMK A01 T01311010  RH  038%=      5-min Rain = 0
KSE2 142340Z 13009KT 13/M01 A3024 RMK A01 T01301011  RH  038%=      5-min Rain = 0
KSE2 142341Z 12010KT 13/M01 A3024 RMK A01 T01301010  RH  038%=      5-min Rain = 0
KSE2 142342Z 12010KT 13/M01 A3024 RMK A01 T01291013  RH  037%=      5-min Rain = 0
KSE2 142343Z 12010KT 13/M01 A3024 RMK A01 T01281013  RH  037%=      5-min Rain = 0
KSE2 142344Z 13010KT 13/M02 A3024 RMK A01 T01281015  RH  037%=      5-min Rain = 0
KSE2 142345Z 12009KT 13/M02 A3024 RMK A01 T01281015  RH  037%=      5-min Rain = 0
KSE2 142346Z 13009KT 13/M02 A3024 RMK A01 T01271017  RH  037%=      5-min Rain = 0
KSE2 142347Z 12008KT 13/M02 A3024 RMK A01 T01271015  RH  037%=      5-min Rain = 0
KSE2 142348Z 13008KT 13/M01 A3024 RMK A01 T01271013  RH  038%=      5-min Rain = 0
KSE2 142349Z 13010KT 13/M02 A3024 RMK A01 T01271015  RH  037%=      5-min Rain = 0
KSE2 142350Z 12011KT 13/M02 A3024 RMK A01 T01271016  RH  037%=      5-min Rain = 0
KSE2 142351Z 12011KT 13/M02 A3024 RMK A01 T01261016  RH  037%=      5-min Rain = 0
KSE2 142352Z 13009KT 13/M01 A3024 RMK A01 T01251014  RH  038%=      5-min Rain = 0
KSE2 142353Z 12010KT 13/M02 A3024 RMK A01 T01251016  RH  038%=      5-min Rain = 0
KSE2 142354Z 12011KT 13/M02 A3024 RMK A01 T01251018  RH  037%=      5-min Rain = 0
KSE2 142355Z 13011KT 12/M02 A3024 RMK A01 T01241019  RH  037%=      5-min Rain = 0
KSE2 142356Z 13011KT 12/M02 A3024 RMK A01 T01241019  RH  037%=      5-min Rain = 0
KSE2 142357Z 12008KT 12/M02 A3024 RMK A01 T01241019  RH  037%=      5-min Rain = 0
KSE2 142358Z 13008KT 12/M02 A3024 RMK A01 T01231017  RH  038%=      5-min Rain = 0
KSE2 142359Z 13010KT 12/M02 A3024 RMK A01 T01221018  RH  038%=      5-min Rain = 0
KSE2 150000Z 12010KT 12/M02 A3024 RMK A01 T01221019  RH  037%=      5-min Rain = 0
KSE2 150001Z 12007KT 12/M02 A3024 RMK A01 T01221017  RH  038%=      5-min Rain = 0
KSE2 150002Z 13008KT 12/M02 A3024 RMK A01 T01211015  RH  039%=      5-min Rain = 0
KSE2 150003Z 14009KT 12/M02 A3024 RMK A01 T01211015  RH  039%=      5-min Rain = 0
KSE2 150004Z 14009KT 12/M02 A3024 RMK A01 T01211016  RH  039%=      5-min Rain = 0
KSE2 150005Z 13007G13KT 12/M01 A3024 RMK A01 T01201014  RH  039%=      5-min Rain = 0
KSE2 150006Z 13009KT 12/M02 A3024 RMK A01 T01201015  RH  039%=      5-min Rain = 0
KSE2 150007Z 14010KT 12/M02 A3024 RMK A01 T01191016  RH  039%=      5-min Rain = 0
KSE2 150008Z 13010KT 12/M02 A3024 RMK A01 T01191018  RH  038%=      5-min Rain = 0
KSE2 150009Z 13009KT 12/M02 A3024 RMK A01 T01191017  RH  039%=      5-min Rain = 0
KSE2 150010Z 14009KT 12/M02 A3025 RMK A01 T01191015  RH  039%=      5-min Rain = 0
KSE2 150011Z 14008KT 12/M02 A3025 RMK A01 T01191016  RH  039%=      5-min Rain = 0
KSE2 150012Z 14008KT 12/M02 A3025 RMK A01 T01181015  RH  040%=      5-min Rain = 0
KSE2 150013Z 14008KT 12/M02 A3025 RMK A01 T01171015  RH  040%=      5-min Rain = 0
KSE2 150014Z 14007KT 12/M02 A3025 RMK A01 T01171015  RH  040%=      5-min Rain = 0
KSE2 150015Z 13007KT 12/M02 A3025 RMK A01 T01161016  RH  040%=      5-min Rain = 0
KSE2 150016Z 14007KT 12/M02 A3025 RMK A01 T01161016  RH  040%=      5-min Rain = 0
KSE2 150017Z 13008KT 12/M01 A3025 RMK A01 T01151014  RH  041%=      5-min Rain = 0
KSE2 150018Z 14007KT 12/M01 A3025 RMK A01 T01151014  RH  041%=      5-min Rain = 0
KSE2 150019Z 14008KT 11/M01 A3025 RMK A01 T01141013  RH  041%=      5-min Rain = 0
KSE2 150020Z 14007KT 11/M02 A3025 RMK A01 T01131016  RH  041%=      5-min Rain = 0
KSE2 150021Z 14009KT 11/M02 A3025 RMK A01 T01131015  RH  041%=      5-min Rain = 0
KSE2 150022Z 14009KT 11/M02 A3025 RMK A01 T01131018  RH  040%=      5-min Rain = 0
KSE2 150023Z 14007KT 11/M02 A3025 RMK A01 T01131017  RH  040%=      5-min Rain = 0
KSE2 150024Z 14008KT 11/M02 A3025 RMK A01 T01121020  RH  040%=      5-min Rain = 0
KSE2 150025Z 14008KT 11/M02 A3025 RMK A01 T01121019  RH  040%=      5-min Rain = 0
KSE2 150026Z 14008KT 11/M02 A3025 RMK A01 T01121018  RH  040%=      5-min Rain = 0
KSE2 150027Z 13007KT 11/M02 A3025 RMK A01 T01111019  RH  040%=      5-min Rain = 0
KSE2 150028Z 14007KT 11/M02 A3025 RMK A01 T01101018  RH  041%=      5-min Rain = 0
KSE2 150029Z 13007KT 11/M02 A3025 RMK A01 T01091020  RH  041%=      5-min Rain = 0
KSE2 150030Z 13009KT 11/M02 A3025 RMK A01 T01091020  RH  041%=      5-min Rain = 0
KSE2 150031Z 13007KT 11/M02 A3025 RMK A01 T01081020  RH  041%=      5-min Rain = 0
KSE2 150032Z 13008KT 11/M02 A3025 RMK A01 T01081020  RH  041%=      5-min Rain = 0
KSE2 150033Z 13008KT 11/M02 A3025 RMK A01 T01081021  RH  041%=      5-min Rain = 0
KSE2 150034Z 14007KT 11/M02 A3025 RMK A01 T01081020  RH  041%=      5-min Rain = 0
KSE2 150035Z 14007KT 11/M02 A3025 RMK A01 T01071018  RH  042%=      5-min Rain = 0
KSE2 150036Z 14008KT 11/M02 A3025 RMK A01 T01061019  RH  042%=      5-min Rain = 0
KSE2 150037Z 14009KT 11/M02 A3025 RMK A01 T01061019  RH  042%=      5-min Rain = 0
KSE2 150038Z 14006KT 11/M02 A3025 RMK A01 T01051018  RH  042%=      5-min Rain = 0
KSE2 150039Z 13007KT 11/M02 A3025 RMK A01 T01051019  RH  042%=      5-min Rain = 0
KSE2 150040Z 14008KT 11/M02 A3025 RMK A01 T01051019  RH  042%=      5-min Rain = 0
KSE2 150041Z 14008KT 10/M02 A3025 RMK A01 T01041019  RH  042%=      5-min Rain = 0
KSE2 150042Z 14007KT 10/M02 A3025 RMK A01 T01041018  RH  042%=      5-min Rain = 0
KSE2 150043Z 14007KT 10/M02 A3025 RMK A01 T01041019  RH  042%=      5-min Rain = 0
KSE2 150044Z 14008KT 10/M02 A3025 RMK A01 T01041020  RH  042%=      5-min Rain = 0
KSE2 150045Z 14007KT 10/M02 A3025 RMK A01 T01041019  RH  042%=      5-min Rain = 0
KSE2 150046Z 15007KT 10/M02 A3025 RMK A01 T01041019  RH  042%=      5-min Rain = 0
KSE2 150047Z 14007KT 10/M02 A3025 RMK A01 T01031020  RH  042%=      5-min Rain = 0
KSE2 150048Z 14007KT 10/M02 A3025 RMK A01 T01031019  RH  043%=      5-min Rain = 0
KSE2 150049Z 14006KT 10/M02 A3025 RMK A01 T01021019  RH  043%=      5-min Rain = 0
KSE2 150050Z 15006KT 10/M02 A3025 RMK A01 T01021019  RH  043%=      5-min Rain = 0
KSE2 150051Z 14006KT 10/M02 A3025 RMK A01 T01011018  RH  043%=      5-min Rain = 0
KSE2 150052Z 14006KT 10/M02 A3025 RMK A01 T01011019  RH  043%=      5-min Rain = 0
KSE2 150053Z 14007KT 10/M02 A3025 RMK A01 T01011018  RH  044%=      5-min Rain = 0
KSE2 150054Z 14006KT 10/M02 A3025 RMK A01 T01001018  RH  044%=      5-min Rain = 0
KSE2 150055Z 14007KT 10/M02 A3025 RMK A01 T01001016  RH  044%=      5-min Rain = 0
KSE2 150056Z 14006KT 10/M02 A3025 RMK A01 T00991018  RH  044%=      5-min Rain = 0
KSE2 150057Z 14006KT 10/M02 A3025 RMK A01 T00991018  RH  044%=      5-min Rain = 0
KSE2 150058Z 14005KT 10/M02 A3025 RMK A01 T00981019  RH  044%=      5-min Rain = 0
KSE2 150059Z 14007KT 10/M02 A3025 RMK A01 T00981018  RH  044%=      5-min Rain = 0
KSE2 150100Z 14006KT 10/M02 A3025 RMK A01 T00981018  RH  044%=      5-min Rain = 0
KSE2 150101Z 15007KT 10/M02 A3025 RMK A01 T00971017  RH  045%=      5-min Rain = 0
KSE2 150102Z 14006KT 10/M02 A3025 RMK A01 T00971018  RH  045%=      5-min Rain = 0
KSE2 150103Z 15007KT 10/M02 A3025 RMK A01 T00961016  RH  045%=      5-min Rain = 0
KSE2 150104Z 14007KT 10/M02 A3025 RMK A01 T00961017  RH  045%=      5-min Rain = 0
KSE2 150105Z 15006KT 10/M02 A3025 RMK A01 T00961017  RH  045%=      5-min Rain = 0
KSE2 150106Z 15006KT 10/M02 A3025 RMK A01 T00961016  RH  046%=      5-min Rain = 0
KSE2 150107Z 15007KT 10/M02 A3025 RMK A01 T00951016  RH  046%=      5-min Rain = 0
KSE2 150108Z 15008KT 10/M02 A3026 RMK A01 T00951016  RH  046%=      5-min Rain = 0
KSE2 150109Z 14006KT 10/M02 A3026 RMK A01 T00951016  RH  046%=      5-min Rain = 0
KSE2 150110Z 14006KT 10/M02 A3026 RMK A01 T00951016  RH  046%=      5-min Rain = 0
KSE2 150111Z 14007KT 09/M02 A3026 RMK A01 T00941015  RH  047%=      5-min Rain = 0
KSE2 150112Z 14007KT 09/M02 A3026 RMK A01 T00931015  RH  047%=      5-min Rain = 0
KSE2 150113Z 14006KT 09/M02 A3026 RMK A01 T00931015  RH  047%=      5-min Rain = 0
KSE2 150114Z 15007KT 09/M01 A3026 RMK A01 T00931014  RH  047%=      5-min Rain = 0
KSE2 150115Z 14008KT 09/M02 A3026 RMK A01 T00931016  RH  047%=      5-min Rain = 0
KSE2 150116Z 14007KT 09/M02 A3026 RMK A01 T00941015  RH  046%=      5-min Rain = 0
KSE2 150117Z 14006KT 09/M02 A3026 RMK A01 T00941015  RH  047%=      5-min Rain = 0
KSE2 150118Z 15007KT 09/M01 A3026 RMK A01 T00931013  RH  047%=      5-min Rain = 0
KSE2 150119Z 15007KT 09/M01 A3026 RMK A01 T00921014  RH  047%=      5-min Rain = 0
KSE2 150120Z 14007KT 09/M01 A3026 RMK A01 T00921014  RH  047%=      5-min Rain = 0
KSE2 150121Z 15006KT 09/M01 A3026 RMK A01 T00921014  RH  048%=      5-min Rain = 0
KSE2 150122Z 14007KT 09/M01 A3026 RMK A01 T00911013  RH  048%=      5-min Rain = 0
KSE2 150123Z 15006KT 09/M01 A3026 RMK A01 T00911012  RH  048%=      5-min Rain = 0
KSE2 150124Z 15007KT 09/M01 A3026 RMK A01 T00911013  RH  048%=      5-min Rain = 0
KSE2 150125Z 15006KT 09/M01 A3026 RMK A01 T00901013  RH  048%=      5-min Rain = 0
KSE2 150126Z 14006KT 09/M01 A3026 RMK A01 T00901013  RH  048%=      5-min Rain = 0
KSE2 150127Z 15006KT 09/M01 A3026 RMK A01 T00901011  RH  049%=      5-min Rain = 0
KSE2 150128Z 15006KT 09/M01 A3026 RMK A01 T00891012  RH  049%=      5-min Rain = 0
KSE2 150129Z 15007KT 09/M01 A3026 RMK A01 T00881012  RH  049%=      5-min Rain = 0
KSE2 150130Z 15007KT 09/M01 A3026 RMK A01 T00881013  RH  049%=      5-min Rain = 0
KSE2 150131Z 15006KT 09/M01 A3026 RMK A01 T00881012  RH  050%=      5-min Rain = 0
KSE2 150132Z 15006KT 09/M01 A3026 RMK A01 T00881011  RH  050%=      5-min Rain = 0
KSE2 150133Z 15006KT 09/M01 A3026 RMK A01 T00871012  RH  050%=      5-min Rain = 0
KSE2 150134Z 14007KT 09/M01 A3026 RMK A01 T00871011  RH  050%=      5-min Rain = 0
KSE2 150135Z 15006KT 09/M01 A3027 RMK A01 T00861011  RH  050%=      5-min Rain = 0
KSE2 150136Z 15007KT 09/M01 A3027 RMK A01 T00861011  RH  050%=      5-min Rain = 0
KSE2 150137Z 14006KT 09/M01 A3027 RMK A01 T00861011  RH  051%=      5-min Rain = 0
KSE2 150138Z 14007KT 09/M01 A3027 RMK A01 T00851011  RH  051%=      5-min Rain = 0
KSE2 150139Z 15007KT 09/M01 A3027 RMK A01 T00851011  RH  051%=      5-min Rain = 0
KSE2 150140Z 15007KT 08/M01 A3027 RMK A01 T00841011  RH  051%=      5-min Rain = 0
KSE2 150141Z 15006KT 08/M01 A3027 RMK A01 T00841011  RH  051%=      5-min Rain = 0
KSE2 150142Z 15007KT 08/M01 A3027 RMK A01 T00831011  RH  052%=      5-min Rain = 0
KSE2 150143Z 15007KT 08/M01 A3027 RMK A01 T00831010  RH  052%=      5-min Rain = 0
KSE2 150144Z 15007KT 08/M01 A3027 RMK A01 T00831011  RH  052%=      5-min Rain = 0
KSE2 150145Z 15007KT 08/M01 A3027 RMK A01 T00831010  RH  052%=      5-min Rain = 0
KSE2 150146Z 15007KT 08/M01 A3027 RMK A01 T00821011  RH  052%=      5-min Rain = 0
KSE2 150147Z 15007KT 08/M01 A3027 RMK A01 T00821011  RH  052%=      5-min Rain = 0
KSE2 150148Z 15008KT 08/M01 A3027 RMK A01 T00821010  RH  052%=      5-min Rain = 0
KSE2 150149Z 15006KT 08/M01 A3027 RMK A01 T00821011  RH  052%=      5-min Rain = 0
KSE2 150150Z 15007KT 08/M01 A3027 RMK A01 T00821010  RH  052%=      5-min Rain = 0
KSE2 150151Z 15008KT 08/M01 A3027 RMK A01 T00811010  RH  052%=      5-min Rain = 0
KSE2 150152Z 15006KT 08/M01 A3027 RMK A01 T00811010  RH  052%=      5-min Rain = 0
KSE2 150153Z 15007KT 08/M01 A3027 RMK A01 T00811010  RH  053%=      5-min Rain = 0
KSE2 150154Z 15008KT 08/M01 A3027 RMK A01 T00801010  RH  053%=      5-min Rain = 0
KSE2 150155Z 15007KT 08/M01 A3027 RMK A01 T00801010  RH  053%=      5-min Rain = 0
KSE2 150156Z 16007KT 08/M01 A3027 RMK A01 T00801010  RH  053%=      5-min Rain = 0
KSE2 150157Z 16007KT 08/M01 A3027 RMK A01 T00801010  RH  053%=      5-min Rain = 0
KSE2 150158Z 15008KT 08/M01 A3027 RMK A01 T00801010  RH  053%=      5-min Rain = 0
KSE2 150159Z 15008KT 08/M01 A3027 RMK A01 T00791010  RH  053%=      5-min Rain = 0
KSE2 150200Z 15008KT 08/M01 A3027 RMK A01 T00801009  RH  053%=      5-min Rain = 0
KSE2 150201Z 15008KT 08/M01 A3027 RMK A01 T00801009  RH  053%=      5-min Rain = 0
KSE2 150202Z 15008KT 08/M01 A3027 RMK A01 T00801009  RH  053%=      5-min Rain = 0
KSE2 150203Z 15008KT 08/M01 A3027 RMK A01 T00801008  RH  054%=      5-min Rain = 0
KSE2 150204Z 15008KT 08/M01 A3027 RMK A01 T00801009  RH  053%=      5-min Rain = 0
KSE2 150205Z 15008KT 08/M01 A3027 RMK A01 T00801009  RH  053%=      5-min Rain = 0
KSE2 150206Z 15007KT 08/M01 A3027 RMK A01 T00801009  RH  053%=      5-min Rain = 0
KSE2 150207Z 15007KT 08/M01 A3027 RMK A01 T00791008  RH  054%=      5-min Rain = 0
KSE2 150208Z 15008KT 08/M01 A3027 RMK A01 T00791008  RH  054%=      5-min Rain = 0
KSE2 150209Z 15007KT 08/M01 A3027 RMK A01 T00791009  RH  054%=      5-min Rain = 0
KSE2 150210Z 15008KT 08/M01 A3027 RMK A01 T00791008  RH  054%=      5-min Rain = 0
KSE2 150211Z 14007KT 08/M01 A3027 RMK A01 T00791008  RH  054%=      5-min Rain = 0
KSE2 150212Z 15006KT 08/M01 A3027 RMK A01 T00781008  RH  055%=      5-min Rain = 0
KSE2 150213Z 14006KT 08/M01 A3027 RMK A01 T00781008  RH  055%=      5-min Rain = 0
KSE2 150214Z 14007KT 08/M01 A3028 RMK A01 T00771008  RH  055%=      5-min Rain = 0
KSE2 150215Z 15007KT 08/M01 A3028 RMK A01 T00761006  RH  056%=      5-min Rain = 0
KSE2 150216Z 15007KT 08/M01 A3028 RMK A01 T00761007  RH  056%=      5-min Rain = 0
KSE2 150217Z 15007KT 08/M01 A3028 RMK A01 T00761006  RH  056%=      5-min Rain = 0
KSE2 150218Z 15007KT 08/M01 A3028 RMK A01 T00761007  RH  056%=      5-min Rain = 0
KSE2 150219Z 15006KT 08/M01 A3028 RMK A01 T00761006  RH  056%=      5-min Rain = 0
KSE2 150220Z 15006KT 08/M01 A3028 RMK A01 T00751006  RH  056%=      5-min Rain = 0
KSE2 150221Z 15007KT 08/M01 A3028 RMK A01 T00751006  RH  057%=      5-min Rain = 0
KSE2 150222Z 15007KT 08/M01 A3028 RMK A01 T00751006  RH  056%=      5-min Rain = 0
KSE2 150223Z 15007KT 08/M01 A3028 RMK A01 T00751005  RH  057%=      5-min Rain = 0
KSE2 150224Z 14007KT 08/M01 A3028 RMK A01 T00751006  RH  057%=      5-min Rain = 0
KSE2 150225Z 15007KT 08/M01 A3028 RMK A01 T00751006  RH  057%=      5-min Rain = 0
KSE2 150226Z 15006KT 08/M01 A3028 RMK A01 T00751005  RH  057%=      5-min Rain = 0
KSE2 150227Z 15007KT 08/M01 A3028 RMK A01 T00751005  RH  057%=      5-min Rain = 0
KSE2 150228Z 15006KT 08/M01 A3028 RMK A01 T00751005  RH  057%=      5-min Rain = 0
KSE2 150229Z 15007KT 08/M00 A3028 RMK A01 T00751004  RH  057%=      5-min Rain = 0
KSE2 150230Z 15007KT 08/M00 A3028 RMK A01 T00751004  RH  057%=      5-min Rain = 0
KSE2 150231Z 15008KT 08/M00 A3028 RMK A01 T00751004  RH  057%=      5-min Rain = 0
KSE2 150232Z 14006KT 08/M00 A3028 RMK A01 T00751004  RH  057%=      5-min Rain = 0
KSE2 150233Z 15008KT 08/M00 A3028 RMK A01 T00761003  RH  057%=      5-min Rain = 0
KSE2 150234Z 15006KT 08/M00 A3028 RMK A01 T00761004  RH  057%=      5-min Rain = 0
KSE2 150235Z 15006KT 08/M00 A3028 RMK A01 T00751003  RH  057%=      5-min Rain = 0
KSE2 150236Z 15007KT 08/M00 A3028 RMK A01 T00751004  RH  058%=      5-min Rain = 0
KSE2 150237Z 15006KT 07/M00 A3028 RMK A01 T00741004  RH  058%=      5-min Rain = 0
KSE2 150238Z 14007KT 07/M00 A3028 RMK A01 T00741004  RH  058%=      5-min Rain = 0
KSE2 150239Z 15007KT 08/M00 A3028 RMK A01 T00751004  RH  058%=      5-min Rain = 0
KSE2 150240Z 15007KT 07/M00 A3028 RMK A01 T00741003  RH  058%=      5-min Rain = 0
KSE2 150241Z 15007KT 07/M00 A3028 RMK A01 T00731003  RH  058%=      5-min Rain = 0
KSE2 150242Z 15007KT 07/M00 A3028 RMK A01 T00731003  RH  058%=      5-min Rain = 0
KSE2 150243Z 15007KT 07/M00 A3028 RMK A01 T00731003  RH  058%=      5-min Rain = 0
KSE2 150244Z 15007KT 07/M00 A3028 RMK A01 T00731004  RH  058%=      5-min Rain = 0
KSE2 150245Z 15007KT 07/M00 A3028 RMK A01 T00731004  RH  058%=      5-min Rain = 0
KSE2 150246Z 15007KT 07/M00 A3028 RMK A01 T00731002  RH  059%=      5-min Rain = 0
KSE2 150247Z 15007KT 07/M00 A3028 RMK A01 T00721002  RH  059%=      5-min Rain = 0
KSE2 150248Z 15007KT 07/M00 A3028 RMK A01 T00721002  RH  059%=      5-min Rain = 0
KSE2 150249Z 15007KT 07/M00 A3029 RMK A01 T00711003  RH  059%=      5-min Rain = 0
KSE2 150250Z 15006KT 07/M00 A3029 RMK A01 T00711003  RH  059%=      5-min Rain = 0
KSE2 150251Z 15006KT 07/M00 A3029 RMK A01 T00711003  RH  059%=      5-min Rain = 0
KSE2 150252Z 15006KT 07/M00 A3029 RMK A01 T00711003  RH  059%=      5-min Rain = 0
KSE2 150253Z 15005KT 07/M00 A3029 RMK A01 T00711003  RH  060%=      5-min Rain = 0
KSE2 150254Z 15006KT 07/M00 A3029 RMK A01 T00701003  RH  060%=      5-min Rain = 0
KSE2 150255Z 15006KT 07/M00 A3029 RMK A01 T00701003  RH  060%=      5-min Rain = 0
KSE2 150256Z 15006KT 07/M00 A3029 RMK A01 T00701003  RH  060%=      5-min Rain = 0
KSE2 150257Z 15006KT 07/M00 A3029 RMK A01 T00701002  RH  060%=      5-min Rain = 0
KSE2 150258Z 15007KT 07/M00 A3029 RMK A01 T00701002  RH  060%=      5-min Rain = 0
KSE2 150259Z 15006KT 07/M00 A3029 RMK A01 T00701003  RH  060%=      5-min Rain = 0
KSE2 150300Z 15006KT 07/M00 A3029 RMK A01 T00701002  RH  060%=      5-min Rain = 0
KSE2 150301Z 15007KT 07/M00 A3029 RMK A01 T00701002  RH  060%=      5-min Rain = 0
KSE2 150302Z 15007KT 07/M00 A3029 RMK A01 T00701003  RH  060%=      5-min Rain = 0
KSE2 150303Z 15006KT 07/M00 A3029 RMK A01 T00711002  RH  060%=      5-min Rain = 0
KSE2 150304Z 15007KT 07/M00 A3029 RMK A01 T00701002  RH  060%=      5-min Rain = 0
KSE2 150305Z 15006KT 07/M00 A3029 RMK A01 T00701002  RH  060%=      5-min Rain = 0
KSE2 150306Z 15007KT 07/M00 A3029 RMK A01 T00701002  RH  060%=      5-min Rain = 0
KSE2 150307Z 15006KT 07/M00 A3029 RMK A01 T00691002  RH  060%=      5-min Rain = 0
KSE2 150308Z 15006KT 07/M00 A3029 RMK A01 T00691002  RH  060%=      5-min Rain = 0
KSE2 150309Z 15006KT 07/M00 A3029 RMK A01 T00691002  RH  061%=      5-min Rain = 0
KSE2 150310Z 15006KT 07/M00 A3029 RMK A01 T00691002  RH  061%=      5-min Rain = 0
KSE2 150311Z 15006KT 07/M00 A3029 RMK A01 T00681003  RH  061%=      5-min Rain = 0
KSE2 150312Z 15006KT 07/M00 A3029 RMK A01 T00681003  RH  060%=      5-min Rain = 0
KSE2 150313Z 15005KT 07/M00 A303 RMK A01 T00681003  RH  061%=      5-min Rain = 0
KSE2 150314Z 15006KT 07/M00 A303 RMK A01 T00681002  RH  061%=      5-min Rain = 0
KSE2 150315Z 15006KT 07/M00 A303 RMK A01 T00671003  RH  061%=      5-min Rain = 0
KSE2 150316Z 15006KT 07/M00 A303 RMK A01 T00671002  RH  061%=      5-min Rain = 0
KSE2 150317Z 15006KT 07/M00 A303 RMK A01 T00671002  RH  061%=      5-min Rain = 0
KSE2 150318Z 16006KT 07/M00 A303 RMK A01 T00661002  RH  062%=      5-min Rain = 0
KSE2 150319Z 15006KT 07/M00 A303 RMK A01 T00661002  RH  062%=      5-min Rain = 0
KSE2 150320Z 16006KT 07/M00 A303 RMK A01 T00651003  RH  062%=      5-min Rain = 0
KSE2 150321Z 16006KT 07/M00 A303 RMK A01 T00651003  RH  062%=      5-min Rain = 0
KSE2 150322Z 16006KT 07/M00 A303 RMK A01 T00651003  RH  062%=      5-min Rain = 0
KSE2 150323Z 16006KT 07/M00 A303 RMK A01 T00651003  RH  062%=      5-min Rain = 0
KSE2 150324Z 16006KT 07/M00 A303 RMK A01 T00661003  RH  062%=      5-min Rain = 0
KSE2 150325Z 15006KT 07/M00 A303 RMK A01 T00661003  RH  061%=      5-min Rain = 0
KSE2 150326Z 17005KT 07/M00 A303 RMK A01 T00661003  RH  061%=      5-min Rain = 0
KSE2 150327Z 16005KT 07/M00 A303 RMK A01 T00661003  RH  062%=      5-min Rain = 0
KSE2 150328Z 16006KT 07/M00 A303 RMK A01 T00661003  RH  062%=      5-min Rain = 0
KSE2 150329Z 16006KT 07/M00 A303 RMK A01 T00661003  RH  062%=      5-min Rain = 0
KSE2 150330Z 16005KT 07/M00 A303 RMK A01 T00661003  RH  062%=      5-min Rain = 0
KSE2 150331Z 16006KT 07/M00 A303 RMK A01 T00661003  RH  062%=      5-min Rain = 0
KSE2 150332Z 16006KT 07/M00 A303 RMK A01 T00651003  RH  062%=      5-min Rain = 0
KSE2 150333Z 17006KT 07/M00 A303 RMK A01 T00651003  RH  062%=      5-min Rain = 0
KSE2 150334Z 17006KT 06/M00 A303 RMK A01 T00641003  RH  062%=      5-min Rain = 0
KSE2 150335Z 16006KT 06/M00 A303 RMK A01 T00641003  RH  062%=      5-min Rain = 0
KSE2 150336Z 17006KT 06/M00 A303 RMK A01 T00641003  RH  062%=      5-min Rain = 0
KSE2 150337Z 17005KT 06/M00 A303 RMK A01 T00641003  RH  062%=      5-min Rain = 0
KSE2 150338Z 17005KT 06/M00 A303 RMK A01 T00631003  RH  063%=      5-min Rain = 0
KSE2 150339Z 17005KT 06/M00 A303 RMK A01 T00631003  RH  063%=      5-min Rain = 0
KSE2 150340Z 17005KT 06/M00 A303 RMK A01 T00621003  RH  063%=      5-min Rain = 0
KSE2 150341Z 16005KT 06/M00 A303 RMK A01 T00621003  RH  063%=      5-min Rain = 0
KSE2 150342Z 16005KT 06/M00 A303 RMK A01 T00621003  RH  063%=      5-min Rain = 0
KSE2 150343Z 16005KT 06/M00 A303 RMK A01 T00621004  RH  063%=      5-min Rain = 0
KSE2 150344Z 16006KT 06/M00 A303 RMK A01 T00621003  RH  063%=      5-min Rain = 0
KSE2 150345Z 16005KT 06/M00 A303 RMK A01 T00621003  RH  063%=      5-min Rain = 0
KSE2 150346Z 17005KT 06/M00 A303 RMK A01 T00611003  RH  063%=      5-min Rain = 0
KSE2 150347Z 17005KT 06/M00 A303 RMK A01 T00611004  RH  063%=      5-min Rain = 0
KSE2 150348Z 16005KT 06/M00 A303 RMK A01 T00611003  RH  063%=      5-min Rain = 0
KSE2 150349Z 17005KT 06/M00 A303 RMK A01 T00611003  RH  063%=      5-min Rain = 0
KSE2 150350Z 17005KT 06/M00 A303 RMK A01 T00611003  RH  064%=      5-min Rain = 0
KSE2 150351Z 17005KT 06/M00 A303 RMK A01 T00601003  RH  064%=      5-min Rain = 0
KSE2 150352Z 18004KT 06/M00 A303 RMK A01 T00601004  RH  064%=      5-min Rain = 0
KSE2 150353Z 17004KT 06/M00 A303 RMK A01 T00601004  RH  064%=      5-min Rain = 0
KSE2 150354Z 17004KT 06/M00 A303 RMK A01 T00591004  RH  064%=      5-min Rain = 0
KSE2 150355Z 18005KT 06/M00 A303 RMK A01 T00591004  RH  064%=      5-min Rain = 0
KSE2 150356Z 17005KT 06/M00 A303 RMK A01 T00591004  RH  064%=      5-min Rain = 0
KSE2 150357Z 18004KT 06/M00 A303 RMK A01 T00591004  RH  064%=      5-min Rain = 0
KSE2 150358Z 17004KT 06/M00 A303 RMK A01 T00591004  RH  064%=      5-min Rain = 0
KSE2 150359Z 17004KT 06/M00 A303 RMK A01 T00581003  RH  064%=      5-min Rain = 0
KSE2 150400Z 18005KT 06/M00 A303 RMK A01 T00581004  RH  065%=      5-min Rain = 0
KSE2 150401Z 17005KT 06/M00 A303 RMK A01 T00581004  RH  065%=      5-min Rain = 0
KSE2 150402Z 17006KT 06/M00 A303 RMK A01 T00581003  RH  065%=      5-min Rain = 0
KSE2 150403Z 17005KT 06/M00 A303 RMK A01 T00581003  RH  065%=      5-min Rain = 0
KSE2 150404Z 16005KT 06/M00 A303 RMK A01 T00581003  RH  065%=      5-min Rain = 0
KSE2 150405Z 16006KT 06/M00 A3029 RMK A01 T00571003  RH  065%=      5-min Rain = 0
KSE2 150406Z 16006KT 06/M00 A3029 RMK A01 T00561003  RH  066%=      5-min Rain = 0
KSE2 150407Z 15005KT 06/M00 A3029 RMK A01 T00561003  RH  066%=      5-min Rain = 0
KSE2 150408Z 15005KT 06/M00 A3029 RMK A01 T00551002  RH  066%=      5-min Rain = 0
KSE2 150409Z 15005KT 05/M00 A3029 RMK A01 T00541002  RH  067%=      5-min Rain = 0
KSE2 150410Z 15005KT 05/M00 A3029 RMK A01 T00531002  RH  067%=      5-min Rain = 0
KSE2 150411Z 14005KT 05/M00 A3029 RMK A01 T00521002  RH  068%=      5-min Rain = 0
KSE2 150412Z 14005KT 05/M00 A3028 RMK A01 T00511003  RH  068%=      5-min Rain = 0
KSE2 150413Z 14004KT 05/M00 A3028 RMK A01 T00511003  RH  068%=      5-min Rain = 0
KSE2 150414Z 14004KT 05/M00 A3028 RMK A01 T00501004  RH  068%=      5-min Rain = 0
KSE2 150415Z 14004KT 05/M00 A3028 RMK A01 T00491004  RH  068%=      5-min Rain = 0
KSE2 150416Z 14004KT 05/M01 A3028 RMK A01 T00481005  RH  068%=      5-min Rain = 0
KSE2 150417Z 14004KT 05/M01 A3028 RMK A01 T00471005  RH  069%=      5-min Rain = 0
KSE2 150418Z 13004KT 05/M01 A3028 RMK A01 T00471005  RH  069%=      5-min Rain = 0
KSE2 150419Z 13004KT 05/M01 A3028 RMK A01 T00471005  RH  069%=      5-min Rain = 0
KSE2 150420Z 12005KT 05/M00 A3028 RMK A01 T00461004  RH  070%=      5-min Rain = 0
KSE2 150421Z 13005KT 05/M00 A3028 RMK A01 T00461004  RH  070%=      5-min Rain = 0
KSE2 150422Z 13004KT 05/M00 A3028 RMK A01 T00461004  RH  070%=      5-min Rain = 0
KSE2 150423Z 13005KT 05/M00 A3028 RMK A01 T00461003  RH  071%=      5-min Rain = 0
KSE2 150424Z 13005KT 05/M00 A3028 RMK A01 T00461003  RH  070%=      5-min Rain = 0
KSE2 150425Z 14005KT 05/M00 A3028 RMK A01 T00451004  RH  071%=      5-min Rain = 0
KSE2 150426Z 14005KT 05/M00 A3028 RMK A01 T00451003  RH  071%=      5-min Rain = 0
KSE2 150427Z 14005KT 05/M00 A3028 RMK A01 T00451003  RH  071%=      5-min Rain = 0
KSE2 150428Z 14005KT 05/M00 A3028 RMK A01 T00451003  RH  071%=      5-min Rain = 0
KSE2 150429Z 14005KT 05/M00 A3028 RMK A01 T00451002  RH  071%=      5-min Rain = 0
KSE2 150430Z 14006KT 04/M00 A3028 RMK A01 T00441003  RH  072%=      5-min Rain = 0
KSE2 150431Z 14006KT 04/M00 A3028 RMK A01 T00441002  RH  072%=      5-min Rain = 0
KSE2 150432Z 14006KT 04/M00 A3027 RMK A01 T00441002  RH  072%=      5-min Rain = 0
KSE2 150433Z 14006KT 04/M00 A3027 RMK A01 T00441002  RH  072%=      5-min Rain = 0
KSE2 150434Z 14006KT 04/M00 A3027 RMK A01 T00431002  RH  072%=      5-min Rain = 0
KSE2 150435Z 14006KT 04/M00 A3027 RMK A01 T00441002  RH  072%=      5-min Rain = 0
KSE2 150436Z 14006KT 04/M00 A3027 RMK A01 T00441002  RH  072%=      5-min Rain = 0
KSE2 150437Z 13006KT 04/M00 A3027 RMK A01 T00431002  RH  072%=      5-min Rain = 0
KSE2 150438Z 14006KT 04/M00 A3027 RMK A01 T00431002  RH  072%=      5-min Rain = 0
KSE2 150439Z 14006KT 04/M00 A3027 RMK A01 T00431002  RH  072%=      5-min Rain = 0
KSE2 150440Z 14006KT 04/M00 A3027 RMK A01 T00431003  RH  072%=      5-min Rain = 0
KSE2 150441Z 15006KT 04/M00 A3027 RMK A01 T00431002  RH  072%=      5-min Rain = 0
KSE2 150442Z 15006KT 04/M00 A3027 RMK A01 T00431002  RH  073%=      5-min Rain = 0
KSE2 150443Z 15006KT 04/M00 A3027 RMK A01 T00421002  RH  073%=      5-min Rain = 0
KSE2 150444Z 15006KT 04/M00 A3027 RMK A01 T00421002  RH  073%=      5-min Rain = 0
KSE2 150445Z 15005KT 04/M00 A3027 RMK A01 T00421002  RH  073%=      5-min Rain = 0
KSE2 150446Z 15005KT 04/M00 A3027 RMK A01 T00411002  RH  073%=      5-min Rain = 0
KSE2 150447Z 15005KT 04/M00 A3027 RMK A01 T00411002  RH  073%=      5-min Rain = 0
KSE2 150448Z 15005KT 04/M00 A3027 RMK A01 T00411003  RH  073%=      5-min Rain = 0
KSE2 150449Z 15005KT 04/M00 A3027 RMK A01 T00401003  RH  074%=      5-min Rain = 0
KSE2 150450Z 15005KT 04/M00 A3027 RMK A01 T00401002  RH  074%=      5-min Rain = 0
KSE2 150451Z 15005KT 04/M00 A3027 RMK A01 T00401002  RH  074%=      5-min Rain = 0
KSE2 150452Z 14005KT 04/M00 A3027 RMK A01 T00401002  RH  074%=      5-min Rain = 0
KSE2 150453Z 14005KT 04/M00 A3027 RMK A01 T00401002  RH  074%=      5-min Rain = 0
KSE2 150454Z 15005KT 04/M00 A3027 RMK A01 T00401003  RH  074%=      5-min Rain = 0
KSE2 150455Z 15005KT 04/M00 A3027 RMK A01 T00401002  RH  074%=      5-min Rain = 0
KSE2 150456Z 14005KT 04/M00 A3027 RMK A01 T00401003  RH  074%=      5-min Rain = 0
KSE2 150457Z 14005KT 04/M00 A3027 RMK A01 T00391003  RH  074%=      5-min Rain = 0
KSE2 150458Z 15005KT 04/M00 A3027 RMK A01 T00391002  RH  074%=      5-min Rain = 0
KSE2 150459Z 15005KT 04/M00 A3027 RMK A01 T00391002  RH  074%=      5-min Rain = 0
KSE2 150500Z 14005KT 04/M00 A3027 RMK A01 T00401003  RH  074%=      5-min Rain = 0
KSE2 150501Z 14005KT 04/M00 A3027 RMK A01 T00401002  RH  074%=      5-min Rain = 0
KSE2 150502Z 15005KT 04/M00 A3027 RMK A01 T00411002  RH  074%=      5-min Rain = 0
KSE2 150503Z 14005KT 04/M00 A3027 RMK A01 T00411002  RH  074%=      5-min Rain = 0
KSE2 150504Z 14005KT 04/M00 A3027 RMK A01 T00411002  RH  074%=      5-min Rain = 0
KSE2 150505Z 14005KT 04/M00 A3027 RMK A01 T00411002  RH  074%=      5-min Rain = 0
KSE2 150506Z 14005KT 04/M00 A3027 RMK A01 T00411002  RH  074%=      5-min Rain = 0
KSE2 150507Z 14005KT 04/M00 A3027 RMK A01 T00411002  RH  074%=      5-min Rain = 0
KSE2 150508Z 14005KT 04/M00 A3027 RMK A01 T00411002  RH  074%=      5-min Rain = 0
KSE2 150509Z 14005KT 04/M00 A3027 RMK A01 T00411002  RH  074%=      5-min Rain = 0
KSE2 150510Z 15005KT 04/M00 A3027 RMK A01 T00411002  RH  074%=      5-min Rain = 0
KSE2 150511Z 14006KT 04/M00 A3027 RMK A01 T00411002  RH  074%=      5-min Rain = 0
KSE2 150512Z 14006KT 04/M00 A3027 RMK A01 T00411001  RH  074%=      5-min Rain = 0
KSE2 150513Z 14006KT 04/M00 A3027 RMK A01 T00421001  RH  074%=      5-min Rain = 0
KSE2 150514Z 14006KT 04/M00 A3027 RMK A01 T00421001  RH  073%=      5-min Rain = 0
KSE2 150515Z 15006KT 04/M00 A3027 RMK A01 T00421001  RH  073%=      5-min Rain = 0
KSE2 150516Z 15006KT 04/M00 A3027 RMK A01 T00431001  RH  073%=      5-min Rain = 0
KSE2 150517Z 15006KT 04/M00 A3027 RMK A01 T00431001  RH  073%=      5-min Rain = 0
KSE2 150518Z 15006KT 04/M00 A3027 RMK A01 T00431001  RH  073%=      5-min Rain = 0
KSE2 150519Z 15007KT 04/M00 A3027 RMK A01 T00431001  RH  073%=      5-min Rain = 0
KSE2 150520Z 15006KT 05/00 A3027 RMK A01 T004500-0  RH  073%=      5-min Rain = 0
KSE2 150521Z 16007KT 05/00 A3027 RMK A01 T00450000  RH  072%=      5-min Rain = 0
KSE2 150522Z 14006KT 05/00 A3027 RMK A01 T00460000  RH  072%=      5-min Rain = 0
KSE2 150523Z 14006KT 05/00 A3027 RMK A01 T00460000  RH  072%=      5-min Rain = 0
KSE2 150524Z 15006KT 05/00 A3027 RMK A01 T00460000  RH  072%=      5-min Rain = 0
KSE2 150525Z 15006KT 05/00 A3027 RMK A01 T00460000  RH  072%=      5-min Rain = 0
KSE2 150526Z 14006KT 05/00 A3027 RMK A01 T00460000  RH  072%=      5-min Rain = 0
KSE2 150527Z 15007KT 05/00 A3027 RMK A01 T00460000  RH  072%=      5-min Rain = 0
KSE2 150528Z 15007KT 05/00 A3027 RMK A01 T004600-0  RH  072%=      5-min Rain = 0
KSE2 150529Z 15007KT 05/00 A3027 RMK A01 T00470000  RH  072%=      5-min Rain = 0
KSE2 150530Z 15008KT 05/00 A3027 RMK A01 T00480000  RH  071%=      5-min Rain = 0
KSE2 150531Z 15006KT 05/00 A3027 RMK A01 T00480000  RH  071%=      5-min Rain = 0
KSE2 150532Z 16007KT 05/00 A3027 RMK A01 T00480000  RH  071%=      5-min Rain = 0
KSE2 150533Z 15006KT 05/00 A3027 RMK A01 T00490000  RH  071%=      5-min Rain = 0
KSE2 150534Z 15008KT 05/00 A3026 RMK A01 T00500001  RH  070%=      5-min Rain = 0
KSE2 150535Z 16007KT 05/00 A3026 RMK A01 T00500001  RH  070%=      5-min Rain = 0
KSE2 150536Z 16008KT 05/00 A3026 RMK A01 T00500000  RH  070%=      5-min Rain = 0
KSE2 150537Z 15009KT 05/00 A3026 RMK A01 T00510000  RH  070%=      5-min Rain = 0
KSE2 150538Z 15007KT 05/00 A3026 RMK A01 T00520000  RH  069%=      5-min Rain = 0
KSE2 150539Z 15008KT 05/00 A3026 RMK A01 T00520000  RH  069%=      5-min Rain = 0
KSE2 150540Z 14008KT 05/00 A3026 RMK A01 T00530001  RH  069%=      5-min Rain = 0
KSE2 150541Z 15007KT 05/00 A3026 RMK A01 T00530000  RH  069%=      5-min Rain = 0
KSE2 150542Z 15009KT 05/00 A3026 RMK A01 T00530000  RH  069%=      5-min Rain = 0
KSE2 150543Z 15008KT 05/00 A3026 RMK A01 T00530000  RH  069%=      5-min Rain = 0
KSE2 150544Z 15008KT 05/00 A3026 RMK A01 T00530000  RH  069%=      5-min Rain = 0
KSE2 150545Z 15009KT 05/00 A3025 RMK A01 T00530000  RH  069%=      5-min Rain = 0
KSE2 150546Z 14008KT 05/00 A3025 RMK A01 T00530001  RH  069%=      5-min Rain = 0
KSE2 150547Z 15009KT 05/00 A3025 RMK A01 T00530001  RH  069%=      5-min Rain = 0
KSE2 150548Z 15008KT 05/00 A3025 RMK A01 T00530001  RH  069%=      5-min Rain = 0
KSE2 150549Z 15009KT 05/00 A3025 RMK A01 T00520001  RH  069%=      5-min Rain = 0
KSE2 150550Z 15008KT 05/00 A3025 RMK A01 T00520001  RH  069%=      5-min Rain = 0
KSE2 150551Z 15009KT 05/00 A3025 RMK A01 T00520000  RH  069%=      5-min Rain = 0
KSE2 150552Z 15009KT 05/00 A3025 RMK A01 T00530000  RH  069%=      5-min Rain = 0
KSE2 150553Z 15011KT 05/00 A3025 RMK A01 T00530000  RH  069%=      5-min Rain = 0
KSE2 150554Z 15009KT 05/00 A3025 RMK A01 T00530000  RH  069%=      5-min Rain = 0
KSE2 150555Z 15010KT 05/00 A3025 RMK A01 T00540000  RH  069%=      5-min Rain = 0
KSE2 150556Z 16008KT 05/00 A3025 RMK A01 T00540001  RH  069%=      5-min Rain = 0
KSE2 150557Z 15010KT 05/00 A3025 RMK A01 T00540000  RH  069%=      5-min Rain = 0
KSE2 150558Z 15009KT 05/00 A3025 RMK A01 T00540000  RH  068%=      5-min Rain = 0
KSE2 150559Z 16011KT 05/00 A3025 RMK A01 T00540000  RH  068%=      5-min Rain = 0

Page generated in 0.1053 seconds.